Flight Track Log - Related Links

Times and Time Zones

All times are in EDT time to prevent confusion due to time zone crossing. See the SIA21 flight status page for this flight to view local times or setup timezone preferences in your user account.

Time Position Orientation Groundspeed Altitude Reporting Facility
EDT Latitude Longitude Course Direction KTS MPH feet Rate Location/Type
Fri 11:10:59 PM 40.6420 -74.1930 200° South 171 197 1,900  Level FlightAware
Fri 11:11:28 PM 40.6200 -74.2050 202° Southwest 173 199 2,500 1,125 Climbing FlightAware
Fri 11:11:47 PM 40.6120 -74.2200 235° Southwest 169 194 2,800 857 Climbing FlightAware
Fri 11:12:17 PM 40.6260 -74.2420 310° West 186 214 3,200 828 Climbing FlightAware
Fri 11:12:45 PM 40.6500 -74.2310 19° North 203 234 3,600 831 Climbing FlightAware
Fri 11:13:22 PM 40.6830 -74.2050 31° Northeast 229 264 4,100 750 Climbing FlightAware
Fri 11:13:57 PM 40.7150 -74.1790 32° Northeast 259 298 4,500 870 Climbing FlightAware
Fri 11:14:31 PM 40.7510 -74.1460 35° Northeast 283 326 5,100 1,250 Climbing FlightAware
Fri 11:15:09 PM 40.7800 -74.0880 57° Northeast 307 353 6,000 1,615 Climbing FlightAware
Fri 11:15:49 PM 40.8100 -74.0250 58° Northeast 315 362 7,200 1,875 Climbing FlightAware
Fri 11:16:13 PM 40.8300 -73.9860 56° Northeast 316 364 8,000 1,625 Climbing FlightAware
Fri 11:16:37 PM 40.8580 -73.9590 36° Northeast 323 372 8,500 1,440 Climbing FlightAware
Fri 11:17:03 PM 40.8899 -73.9259 38° Northeast 330 380 9,200 1,468 Climbing FlightAware (KSNC)
Fri 11:18:11 PM 40.9730 -73.8390 38° Northeast 354 407 10,800 1,125 Climbing FlightAware
Fri 11:19:11 PM 41.0540 -73.7560 38° Northeast 396 456 11,600 865 Climbing FlightAware
Fri 11:20:02 PM 41.1300 -73.6770 38° Northeast 426 490 12,400 1,234 Climbing FlightAware
Fri 11:20:58 PM 41.2207 -73.5839 38° Northeast 440 506 13,800 1,551 Climbing FlightAware (KSNC)
Fri 11:21:31 PM 41.2746 -73.5281 38° Northeast 445 512 14,700 1,429 Climbing FlightAware (KSNC)
Fri 11:22:01 PM 41.3243 -73.4764 38° Northeast 452 520 15,300 1,477 Climbing FlightAware (KSNC)
Fri 11:22:36 PM 41.3816 -73.4167 38° Northeast 455 524 16,300 1,342 Climbing FlightAware (KSNC)
Fri 11:23:17 PM 41.4509 -73.3530 35° Northeast 460 529 17,000 1,125 Climbing FlightAware (KSNC)
Fri 11:23:40 PM 41.4993 -73.3383 13° North 446 513 17,500 1,472 Climbing FlightAware (KSNC)
Fri 11:24:10 PM 41.5616 -73.3345 North 446 513 18,300 1,583 Climbing FlightAware (KSNC)
Fri 11:24:52 PM 41.6483 -73.3288 North 445 512 19,400 1,250 Climbing FlightAware (KSNC)
Fri 11:25:22 PM 41.7042 -73.3253 North 457 526 19,800 973 Climbing FlightAware (KSNC)
Fri 11:26:06 PM 41.8050 -73.3190 North 465 535 20,600 1,031 Climbing FlightAware
Fri 11:26:26 PM 41.8453 -73.3166 North 470 541 20,900 1,091 Climbing FlightAware (KSNC)
Fri 11:27:01 PM 41.9251 -73.3116 North 475 547 21,600 1,043 Climbing FlightAware (KSNC)
Fri 11:27:35 PM 41.9988 -73.3070 North 481 554 22,100 930 Climbing FlightAware (KSNC)
Fri 11:28:12 PM 42.0817 -73.3018 North 489 563 22,700 947 Climbing FlightAware (KSNC)
Fri 11:28:51 PM 42.1512 -73.2968 North 508 585 23,300 800 Climbing FlightAware (KSNC)
Fri 11:29:12 PM 42.2205 -73.2719 15° North 533 613 23,500 638 Climbing FlightAware (KSNC)
Fri 11:29:38 PM 42.2702 -73.2320 31° Northeast 548 631 23,800 776 Climbing FlightAware (KSNC)
Fri 11:30:37 PM 42.3905 -73.1194 35° Northeast 558 642 24,600 857 Climbing FlightAware (KSNC)
Fri 11:31:30 PM 42.5120 -73.0060 35° Northeast 562 647 25,400 884 Climbing FlightAware
Fri 11:32:12 PM 42.6011 -72.9228 35° Northeast 568 654 26,000 706 Climbing FlightAware (SBBR / BSB)
Fri 11:32:55 PM 42.6959 -72.8336 35° Northeast 572 658 26,400 813 Climbing FlightAware (SBBR / BSB)
Fri 11:33:48 PM 42.7960 -72.7391 35° Northeast 582 670 27,300 918 Climbing FlightAware (KSNC)
Fri 11:34:20 PM 42.8782 -72.6613 35° Northeast 583 671 27,700 904 Climbing FlightAware (KSNC)
Fri 11:35:01 PM 42.9741 -72.5701 35° Northeast 584 672 28,400 1,111 Climbing FlightAware (KSNC)
Fri 11:35:41 PM 43.0504 -72.4972 35° Northeast 587 676 29,200 1,139 Climbing FlightAware (SBBR / BSB)
Fri 11:36:20 PM 43.1487 -72.4033 35° Northeast 575 662 29,900 1,043 Climbing FlightAware
Fri 11:36:27 PM 43.1645 -72.3881 35° Northeast 583 671 30,000 1,241 Climbing FlightAware (SBBR / BSB)
Fri 11:36:49 PM 43.2140 -72.3405 35° Northeast 583 671 30,500 808 Climbing FlightAware (KSNC)
Fri 11:37:19 PM 43.2794 -72.2775 35° Northeast 587 676 30,700 492 Climbing FlightAware
Fri 11:37:50 PM 43.3483 -72.2111 35° Northeast 587 676 31,000 290 Climbing FlightAware
Fri 11:38:21 PM 43.4158 -72.1456 35° Northeast 590 679 31,000  Level FlightAware
Fri 11:38:51 PM 43.4803 -72.0830 35° Northeast 587 676 31,000  Level FlightAware (EPKK / KRK)
Fri 11:39:01 PM 43.5064 -72.0575 35° Northeast 586 674 31,000  Level FlightAware (KSNC)
Fri 11:39:08 PM 43.5214 -72.0429 35° Northeast 585 673 31,000  Level FlightAware (EPKK / KRK)
Fri 11:39:18 PM 43.5439 -72.0210 35° Northeast 578 665 31,000  Level FlightAware
Fri 11:39:48 PM 43.6068 -71.9596 35° Northeast 583 671 31,000  Level FlightAware (KSNC)
Fri 11:40:01 PM 43.6376 -71.9295 35° Northeast 582 670 31,000  Level FlightAware (KSNC)
Fri 11:40:11 PM 43.6599 -71.9076 35° Northeast 582 670 31,000  Level FlightAware (KSNC)
Fri 11:40:30 PM 43.7015 -71.8669 35° Northeast 573 659 31,000  Level FlightAware
Fri 11:41:01 PM 43.7682 -71.8013 35° Northeast 579 666 31,000  Level FlightAware (EPKK / KRK)
Fri 11:41:31 PM 43.8340 -71.7365 35° Northeast 579 666 31,000  Level FlightAware (EPKK / KRK)
Fri 11:42:02 PM 43.9001 -71.6712 35° Northeast 578 665 31,000  Level FlightAware (EPKK / KRK)
Fri 11:42:41 PM 43.9844 -71.5876 36° Northeast 578 665 31,000  Level FlightAware (EPKK / KRK)
Fri 11:43:14 PM 44.0586 -71.5138 36° Northeast 577 664 31,000  Level FlightAware (EPKK / KRK)
Fri 11:43:46 PM 44.1282 -71.4443 36° Northeast 573 659 31,000  Level FlightAware
Fri 11:44:24 PM 44.2098 -71.3626 36° Northeast 575 662 31,000  Level FlightAware
Fri 11:45:17 PM 44.3220 -71.2490 36° Northeast 574 661 31,000  Level FlightAware
Fri 11:45:51 PM 43.7330 -71.8360 216° Southwest 580 667 31,000  Level FlightAware
Fri 11:46:28 PM 43.7640 -71.8060 35° Northeast 579 666 31,000  Level FlightAware
Fri 11:47:04 PM 43.7920 -71.7780 36° Northeast 579 666 31,000  Level FlightAware
Fri 11:47:52 PM 43.8240 -71.7470 35° Northeast 579 666 31,000  Level FlightAware
Fri 11:48:24 PM 44.7240 -70.8410 35° Northeast 579 666 31,000  Level FlightAware
Fri 11:49:15 PM 44.8360 -70.7260 36° Northeast 579 666 31,000  Level FlightAware
Fri 11:49:47 PM 44.9060 -70.6540 36° Northeast 579 666 31,000  Level FlightAware
Fri 11:50:35 PM 45.0080 -70.5480 36° Northeast 578 665 31,000  Level FlightAware
Fri 11:51:06 PM 45.0720 -70.4810 36° Northeast 578 665 31,000  Level FlightAware
Fri 11:51:26 PM 45.1200 -70.4314 36° Northeast 576 663 31,000  Level FlightAware
Fri 11:52:35 PM 45.2640 -70.2800 36° Northeast 576 663 31,000  Level FlightAware
Fri 11:53:41 PM 45.3850 -70.1550 36° Northeast 576 663 31,000  Level FlightAware
Fri 11:54:29 PM 45.4930 -70.0390 37° Northeast 580 667 31,000  Level FlightAware
Fri 11:55:17 PM 45.6010 -69.9240 37° Northeast 31,000  Level FlightAware
Fri 11:56:02 PM 45.7000 -69.8180 37° Northeast 574 661 31,000  Level FlightAware
Fri 11:56:42 PM 45.7920 -69.7190 37° Northeast 573 659 31,000  Level FlightAware
Fri 11:57:27 PM 45.8830 -69.6210 37° Northeast 574 661 31,000  Level FlightAware
Fri 11:58:27 PM 46.0040 -69.4900 37° Northeast 573 659 31,000  Level FlightAware
Fri 11:59:22 PM 46.1240 -69.3590 37° Northeast 572 658 31,000  Level FlightAware
Fri 11:59:52 PM 46.1850 -69.2930 37° Northeast 573 659 31,000  Level FlightAware
Sat 12:00:47 AM 46.3050 -69.1600 37° Northeast 572 658 31,000  Level FlightAware
Sat 12:01:37 AM 46.4090 -69.0460 37° Northeast 569 655 31,000  Level FlightAware
Sat 12:02:27 AM 46.5140 -68.9300 37° Northeast 568 654 31,000  Level FlightAware
Sat 12:03:17 AM 46.6180 -68.8130 38° Northeast 565 650 31,000  Level FlightAware
Sat 12:03:47 AM 46.6700 -68.7540 38° Northeast 563 648 31,000  Level FlightAware
Sat 12:04:32 AM 46.7690 -68.6440 37° Northeast 564 649 31,000  Level FlightAware
Sat 12:05:07 AM 46.8460 -68.5570 38° Northeast 567 652 31,000  Level FlightAware
Sat 12:05:52 AM 46.9360 -68.4550 38° Northeast 564 649 31,000  Level FlightAware
Sat 12:06:36 AM 47.0110 -68.3690 38° Northeast 565 650 31,000  Level FlightAware
Sat 12:07:10 AM 47.0970 -68.2710 38° Northeast 554 638 31,000  Level FlightAware
Sat 12:07:49 AM 47.1790 -68.1770 38° Northeast 559 643 31,000  Level FlightAware
Sat 12:08:24 AM 47.2500 -68.0950 38° Northeast 559 643 31,000  Level FlightAware
Sat 12:09:01 AM 47.3150 -68.0200 38° Northeast 559 643 31,000  Level FlightAware
Sat 12:09:41 AM 47.4060 -67.9150 38° Northeast 562 647 31,000  Level FlightAware
Sat 12:10:11 AM 47.4670 -67.8440 38° Northeast 563 648 31,000  Level FlightAware
Sat 12:11:20 AM 47.5940 -67.6830 41° Northeast 565 650 31,000  Level FlightAware
Sat 12:12:09 AM 47.6910 -67.5580 41° Northeast 562 647 31,000  Level FlightAware
Sat 12:12:21 AM 47.7230 -67.5170 41° Northeast 562 647 31,000  Level FlightAware
Sat 12:13:35 AM 47.8460 -67.3570 41° Northeast 562 647 31,000  Level FlightAware
Sat 12:14:17 AM 47.9480 -67.2180 42° Northeast 560 644 31,000  Level FlightAware
Sat 12:15:14 AM 48.0560 -67.0730 42° Northeast 551 634 31,000  Level FlightAware
Sat 12:15:42 AM 48.1090 -67.0020 42° Northeast 550 633 31,000  Level FlightAware
Sat 12:16:17 AM 48.1760 -66.9110 42° Northeast 555 639 31,000  Level FlightAware
Sat 12:17:18 AM 48.2910 -66.7550 42° Northeast 552 635 31,000  Level FlightAware
Sat 12:18:10 AM 48.3880 -66.6220 42° Northeast 545 627 31,000  Level FlightAware
Sat 12:18:58 AM 48.4770 -66.5000 42° Northeast 540 621 31,000  Level FlightAware
Sat 12:19:25 AM 48.5270 -66.4320 42° Northeast 542 624 31,000  Level FlightAware
Sat 12:19:58 AM 48.5880 -66.3470 43° Northeast 546 628 31,000  Level FlightAware
Sat 12:20:46 AM 48.6770 -66.2240 42° Northeast 549 632 31,000  Level FlightAware
Sat 12:21:29 AM 48.7580 -66.1110 43° Northeast 552 635 31,000  Level FlightAware
Sat 12:22:14 AM 48.8430 -65.9910 43° Northeast 551 634 31,000  Level FlightAware
Sat 12:23:02 AM 48.9320 -65.8650 43° Northeast 547 629 31,000 74 Level FlightAware
Sat 12:23:35 AM 48.9910 -65.7820 43° Northeast 535 616 31,100  Climbing FlightAware
Sat 12:24:15 AM 49.0650 -65.6760 43° Northeast 547 629 31,000 -65 Descending FlightAware
Sat 12:25:08 AM 49.1620 -65.5390 43° Northeast 539 620 31,000  Level FlightAware
Sat 12:25:40 AM 49.2200 -65.4550 43° Northeast 537 618 31,000  Level FlightAware
Sat 12:26:36 AM 49.3220 -65.3080 43° Northeast 546 628 31,000  Level FlightAware
Sat 12:27:17 AM 49.3980 -65.1980 43° Northeast 548 631 31,000  Level FlightAware
Sat 12:27:48 AM 49.4540 -65.1160 44° Northeast 550 633 31,000  Level FlightAware
Sat 12:28:36 AM 49.5430 -64.9860 43° Northeast 544 626 31,000  Level FlightAware
Sat 12:29:24 AM 49.6300 -64.8590 43° Northeast 543 625 31,000  Level FlightAware
Sat 12:29:58 AM 49.6920 -64.7670 44° Northeast 540 621 31,000  Level FlightAware
Sat 12:30:33 AM 49.7540 -64.6750 44° Northeast 541 623 31,000  Level FlightAware
Sat 12:31:12 AM 49.8200 -64.5780 43° Northeast 541 623 31,000  Level FlightAware
Sat 12:32:15 AM 49.9180 -64.4360 43° Northeast 541 623 31,000  Level FlightAware
Sat 12:33:01 AM 49.9890 -64.3320 43° Northeast 541 623 31,000  Level FlightAware
Sat 12:33:37 AM 50.0450 -64.2510 43° Northeast 541 623 31,000  Level FlightAware
Sat 12:34:26 AM 50.1220 -64.1400 43° Northeast 541 623 31,000  Level FlightAware
Sat 12:35:14 AM 50.1960 -64.0310 43° Northeast 541 623 31,000  Level FlightAware
Sat 12:36:14 AM 50.2900 -63.8950 43° Northeast 541 623 31,000  Level FlightAware
Sat 12:37:14 AM 50.3830 -63.7590 43° Northeast 541 623 31,000  Level FlightAware
Sat 12:38:14 AM 50.4760 -63.6220 43° Northeast 541 623 31,000  Level FlightAware
Sat 12:39:02 AM 50.5510 -63.5120 43° Northeast 541 623 31,000  Level FlightAware
Sat 12:39:38 AM 50.6070 -63.4300 43° Northeast 541 623 31,000  Level FlightAware
Sat 12:40:26 AM 50.6820 -63.3200 43° Northeast 541 623 31,000  Level FlightAware
Sat 12:41:19 AM 50.9000 -62.9000 43° Northeast 540 621 31,000  Level Gander Center
Sat 12:42:19 AM 51.0000 -62.7500 43° Northeast 540 621 31,000  Level Gander Center
Sat 12:43:19 AM 51.1000 -62.5667 49° Northeast 540 621 31,000  Level Gander Center
Sat 12:44:19 AM 51.2000 -62.4000 46° Northeast 530 610 31,000  Level Gander Center
Sat 12:45:19 AM 51.3000 -62.2167 49° Northeast 530 610 31,000  Level Gander Center
Sat 12:46:19 AM 51.4000 -62.0667 43° Northeast 540 621 31,000  Level Gander Center
Sat 12:47:19 AM 51.5167 -61.8667 47° Northeast 540 621 31,000  Level Gander Center
Sat 12:48:19 AM 51.6167 -61.7167 43° Northeast 540 621 31,000  Level Gander Center
Sat 12:49:19 AM 51.7167 -61.5333 49° Northeast 540 621 31,000 150 Level Gander Center
Sat 12:50:19 AM 51.8167 -61.3667 46° Northeast 540 621 31,300 400 Climbing Gander Center
Sat 12:51:19 AM 51.9333 -61.1667 47° Northeast 540 621 31,800 500 Climbing Gander Center
Sat 12:52:19 AM 52.0500 -61.0167 38° Northeast 550 633 32,300 550 Climbing Gander Center
Sat 12:53:19 AM 52.1333 -60.8167 56° Northeast 550 633 32,900 350 Climbing Gander Center
Sat 12:54:19 AM 52.2333 -60.6333 48° Northeast 550 633 33,000 50 Climbing Gander Center
Sat 12:55:19 AM 52.3333 -60.4333 51° Northeast 550 633 33,000  Level Gander Center
Sat 12:56:19 AM 52.4333 -60.2667 45° Northeast 550 633 33,000  Level Gander Center
Sat 12:57:19 AM 52.5333 -60.0667 51° Northeast 550 633 33,000  Level Gander Center
Sat 12:58:19 AM 52.6500 -59.8833 44° Northeast 550 633 33,000  Level Gander Center
Sat 12:59:19 AM 52.7333 -59.7000 53° Northeast 550 633 33,000  Level Gander Center
Sat 01:00:19 AM 52.8500 -59.5167 43° Northeast 540 621 33,000  Level Gander Center
Sat 01:01:19 AM 52.9500 -59.3167 50° Northeast 540 621 33,000  Level Gander Center
Sat 01:02:19 AM 53.0500 -59.1167 50° Northeast 540 621 33,000  Level Gander Center
Sat 01:03:19 AM 53.1167 -58.9333 59° Northeast 530 610 33,000  Level Gander Center
Sat 01:04:19 AM 53.2333 -58.7333 46° Northeast 540 621 33,000  Level Gander Center
Sat 01:05:19 AM 53.3167 -58.5667 50° Northeast 530 610 33,000  Level Gander Center
Sat 01:06:19 AM 53.4333 -58.3667 46° Northeast 530 610 33,000  Level Gander Center
Sat 01:07:19 AM 53.5000 -58.1667 61° Northeast 530 610 33,000  Level Gander Center
Sat 01:08:19 AM 53.6000 -57.9833 47° Northeast 520 598 33,000  Level Gander Center
Sat 01:09:19 AM 53.7000 -57.7833 50° Northeast 530 610 33,000  Level Gander Center
Sat 01:10:19 AM 53.8000 -57.6000 47° Northeast 530 610 33,000 50 Level Gander Center
Sat 01:11:19 AM 53.8833 -57.4000 55° Northeast 520 598 33,100 300 Climbing Gander Center
Sat 01:12:19 AM 53.9833 -57.2167 47° Northeast 520 598 33,600 550 Climbing Gander Center
Sat 01:13:19 AM 54.0667 -57.0000 57° Northeast 530 610 34,200 550 Climbing Gander Center
Sat 01:14:19 AM 54.1500 -56.8333 49° Northeast 530 610 34,700 400 Climbing Gander Center
Sat 01:15:19 AM 54.2500 -56.6167 52° Northeast 530 610 35,000 150 Climbing Gander Center
Sat 01:16:19 AM 54.3333 -56.4333 52° Northeast 530 610 35,000  Level Gander Center
Sat 01:17:19 AM 54.4333 -56.2167 52° Northeast 530 610 35,000  Level Gander Center
Sat 01:18:19 AM 54.5167 -56.0167 54° Northeast 520 598 35,000  Level Gander Center
Sat 01:19:19 AM 54.6167 -55.8167 49° Northeast 520 598 35,000  Level Gander Center
Sat 01:20:19 AM 54.7000 -55.6333 52° Northeast 520 598 35,000  Level Gander Center
Sat 01:21:19 AM 54.8000 -55.4167 51° Northeast 520 598 35,000  Level Gander Center
Sat 01:22:19 AM 54.8833 -55.2333 52° Northeast 510 587 35,000  Level Gander Center
Sat 01:23:19 AM 54.9667 -55.0500 52° Northeast 510 587 35,000  Level Gander Center
Sat 01:24:19 AM 55.0500 -54.8333 56° Northeast 510 587 35,000  Level Gander Center
Sat 01:25:19 AM 55.1333 -54.6333 54° Northeast 510 587 35,000  Level Gander Center
Sat 01:26:19 AM 55.2333 -54.4500 46° Northeast 510 587 35,000  Level Gander Center
Sat 01:27:19 AM 55.3000 -54.2667 57° Northeast 510 587 35,000  Level Gander Center
Sat 01:28:19 AM 55.4000 -54.0667 49° Northeast 500 575 35,000  Level Gander Center
Sat 01:29:19 AM 55.4667 -53.8500 61° Northeast 510 587 35,000  Level Gander Center
Sat 01:30:19 AM 55.5500 -53.6500 54° Northeast 510 587 35,000  Level Gander Center
Sat 01:31:19 AM 55.6500 -53.4667 46° Northeast 510 587 35,000  Level Gander Center
Sat 01:32:19 AM 55.7333 -53.2667 53° Northeast 520 598 35,000  Level Gander Center
Sat 01:35:00 AM 55.8610 -52.9432 55° Northeast  Level FlightAware
Sat 01:42:00 AM 56.4420 -51.4744 54° Northeast  Level FlightAware
Sat 01:43:00 AM 56.5244 -51.2621 55° Northeast  Level FlightAware
Sat 01:44:00 AM 56.6065 -51.0488 55° Northeast  Level FlightAware
Sat 01:45:00 AM 56.6883 -50.8346 55° Northeast  Level FlightAware
Sat 01:46:00 AM 56.7696 -50.6195 55° Northeast  Level FlightAware
Sat 01:47:00 AM 56.8506 -50.4035 56° Northeast  Level FlightAware
Sat 01:48:00 AM 56.9313 -50.1866 56° Northeast  Level FlightAware
Sat 01:49:00 AM 57.0087 -49.9657 65° Northeast  Level FlightAware
Sat 01:50:00 AM 57.0686 -49.7264 65° Northeast  Level FlightAware
Sat 01:50:43 AM 57.2000 -49.1333 66° East 550 633 35,000  Level Gander Center
Sat 01:51:00 AM 57.1282 -49.4864 65° Northeast  Level FlightAware
Sat 01:51:43 AM 57.2667 -48.8667 65° Northeast 550 633 35,000  Level Gander Center
Sat 01:52:00 AM 57.1873 -49.2456 66° East  Level FlightAware
Sat 01:52:43 AM 57.3167 -48.6000 71° East 550 633 35,000  Level Gander Center
Sat 01:53:00 AM 57.2459 -49.0040 66° East  Level FlightAware
Sat 01:53:43 AM 57.3833 -48.3500 64° Northeast 540 621 35,000  Level Gander Center
Sat 01:54:00 AM 57.3040 -48.7617 66° East  Level FlightAware
Sat 01:54:43 AM 57.4333 -48.0833 71° East 540 621 35,000  Level Gander Center
Sat 01:55:00 AM 57.3617 -48.5186 66° East  Level FlightAware
Sat 01:55:43 AM 57.5000 -47.8500 62° Northeast 540 621 35,000  Level Gander Center
Sat 01:56:00 AM 57.4189 -48.2747 66° East  Level FlightAware
Sat 01:56:43 AM 57.5500 -47.5667 72° East 540 621 35,000  Level Gander Center
Sat 01:57:43 AM 57.6167 -47.3333 62° Northeast 530 610 35,000  Level Gander Center
Sat 01:58:43 AM 57.6667 -47.0833 69° East 540 621 35,000  Level Gander Center
Sat 01:59:43 AM 57.7167 -46.8167 71° East 540 621 35,000  Level Gander Center
Sat 02:00:43 AM 57.7833 -46.5667 63° Northeast 540 621 35,000  Level Gander Center
Sat 02:01:43 AM 57.8333 -46.2833 72° East 540 621 35,000  Level Gander Center
Sat 02:02:43 AM 57.8833 -46.0500 68° East 540 621 35,000  Level Gander Center
Sat 02:03:43 AM 57.9500 -45.7667 66° East 540 621 35,000  Level Gander Center
Sat 02:04:43 AM 58.0000 -45.5167 69° East 550 633 35,000  Level Gander Center
Sat 02:05:43 AM 58.0500 -45.2333 71° East 550 633 35,000  Level Gander Center
Sat 02:06:43 AM 58.1000 -44.9667 70° East 550 633 35,000  Level Gander Center
Sat 02:07:43 AM 58.1667 -44.7000 65° Northeast 550 633 35,000  Level Gander Center
Sat 02:08:43 AM 58.2167 -44.4167 71° East 550 633 35,000  Level Gander Center
Sat 02:09:43 AM 58.2667 -44.1667 69° East 550 633 35,000  Level Gander Center
Sat 02:10:43 AM 58.3167 -43.8833 71° East 550 633 35,000  Level Gander Center
Sat 02:11:43 AM 58.3667 -43.6000 71° East 550 633 35,000  Level Gander Center
Sat 02:12:43 AM 58.4167 -43.3500 69° East 560 644 35,000  Level Gander Center
Sat 02:13:43 AM 58.4667 -43.0667 71° East 560 644 35,000  Level Gander Center
Sat 02:14:43 AM 58.5167 -42.7667 72° East 560 644 35,000  Level Gander Center
Sat 02:15:43 AM 58.5667 -42.5167 69° East 560 644 35,000  Level Gander Center
Sat 02:16:43 AM 58.6167 -42.2333 71° East 560 644 35,000  Level Gander Center
Sat 02:17:43 AM 58.6500 -41.9500 77° East 560 644 35,000  Level Gander Center
Sat 02:18:43 AM 58.7000 -41.6500 72° East 560 644 35,000  Level Gander Center
Sat 02:19:43 AM 58.7667 -41.3833 64° Northeast 560 644 35,000  Level Gander Center
Sat 02:20:43 AM 58.8000 -41.1000 77° East 560 644 35,000  Level Gander Center
Sat 02:21:43 AM 58.8500 -40.8167 71° East 560 644 35,000  Level Gander Center
Sat 02:22:43 AM 58.8833 -40.5167 78° East 560 644 35,000  Level Gander Center
Sat 02:23:43 AM 58.9333 -40.2500 70° East 560 644 35,000  Level Gander Center
Sat 02:24:43 AM 58.9833 -39.9500 72° East 560 644 35,000  Level Gander Center
Sat 02:25:43 AM 59.0167 -39.6667 77° East 560 644 35,000  Level Gander Center
Sat 02:26:43 AM 59.0667 -39.3667 72° East 560 644 35,000  Level Gander Center
Sat 02:27:43 AM 59.1000 -39.1167 75° East 560 644 35,000  Level Gander Center
Sat 02:28:43 AM 59.1333 -38.8167 78° East 560 644 35,000  Level Gander Center
Sat 02:29:43 AM 59.1833 -38.5167 72° East 560 644 35,000  Level Gander Center
Sat 02:30:43 AM 59.2167 -38.2333 77° East 560 644 35,000  Level Gander Center
Sat 02:31:43 AM 59.2500 -37.9333 78° East 560 644 35,000  Level Gander Center
Sat 02:32:43 AM 59.2833 -37.6333 78° East 560 644 35,000  Level Gander Center
Sat 02:33:43 AM 59.3167 -37.3333 78° East 560 644 35,000  Level Gander Center
Sat 02:34:43 AM 59.3500 -37.0667 76° East 560 644 35,000  Level Gander Center
Sat 02:35:43 AM 59.4000 -36.7667 72° East 560 644 35,000  Level Gander Center
Sat 02:36:43 AM 59.4333 -36.4667 78° East 550 633 35,000  Level Gander Center
Sat 02:37:43 AM 59.4500 -36.1667 84° East 550 633 35,000  Level Gander Center
Sat 02:38:43 AM 59.5000 -35.9000 70° East 550 633 35,000  Level Gander Center
Sat 02:39:43 AM 59.5167 -35.6000 84° East 550 633 35,000  Level Gander Center
Sat 02:40:43 AM 59.5500 -35.3000 78° East 550 633 35,000  Level Gander Center
Sat 02:43:00 AM 59.5874 -34.9438 78° East  Level FlightAware
Sat 02:50:00 AM 59.7741 -32.9877 78° East  Level FlightAware
Sat 02:51:00 AM 59.7984 -32.7066 80° East  Level FlightAware
Sat 02:52:00 AM 59.8221 -32.4250 80° East  Level FlightAware
Sat 02:53:00 AM 59.8451 -32.1430 81° East  Level FlightAware
Sat 02:54:00 AM 59.8676 -31.8607 81° East  Level FlightAware
Sat 02:55:00 AM 59.8895 -31.5779 81° East  Level FlightAware
Sat 02:56:00 AM 59.9108 -31.2948 81° East  Level FlightAware
Sat 02:57:00 AM 59.9314 -31.0114 82° East  Level FlightAware
Sat 02:58:00 AM 59.9515 -30.7276 82° East  Level FlightAware
Sat 02:59:00 AM 59.9709 -30.4434 82° East  Level FlightAware
Sat 03:00:00 AM 59.9897 -30.1590 82° East  Level FlightAware
Sat 03:01:00 AM 60.0047 -29.8732 86° East  Level FlightAware
Sat 03:02:00 AM 60.0150 -29.5867 86° East  Level FlightAware
Sat 03:03:00 AM 60.0246 -29.3001 86° East  Level FlightAware
Sat 03:04:00 AM 60.0337 -29.0132 86° East  Level FlightAware
Sat 03:05:00 AM 60.0421 -28.7263 87° East  Level FlightAware
Sat 03:06:00 AM 60.0498 -28.4392 87° East  Level FlightAware
Sat 03:07:00 AM 60.0570 -28.1520 87° East  Level FlightAware
Sat 03:08:00 AM 60.0635 -27.8646 87° East  Level FlightAware
Sat 03:09:00 AM 60.0694 -27.5771 88° East  Level FlightAware
Sat 03:10:00 AM 60.0747 -27.2896 88° East  Level FlightAware
Sat 03:11:00 AM 60.0794 -27.0019 88° East  Level FlightAware
Sat 03:12:00 AM 60.0834 -26.7142 88° East  Level FlightAware
Sat 03:13:00 AM 60.0868 -26.4265 89° East  Level FlightAware
Sat 03:14:00 AM 60.0896 -26.1386 89° East  Level FlightAware
Sat 03:15:00 AM 60.0918 -25.8507 89° East  Level FlightAware
Sat 03:16:00 AM 60.0933 -25.5628 89° East  Level FlightAware
Sat 03:17:00 AM 60.0942 -25.2749 90° East  Level FlightAware
Sat 03:18:00 AM 60.0945 -24.9869 90° East  Level FlightAware
Sat 03:19:00 AM 60.0942 -24.6990 90° East  Level FlightAware
Sat 03:20:00 AM 60.0932 -24.4111 90° East  Level FlightAware
Sat 03:21:00 AM 60.0916 -24.1232 91° East  Level FlightAware
Sat 03:22:00 AM 60.0894 -23.8353 91° East  Level FlightAware
Sat 03:23:00 AM 60.0865 -23.5475 91° East  Level FlightAware
Sat 03:24:00 AM 60.0831 -23.2597 91° East  Level FlightAware
Sat 03:25:00 AM 60.0790 -22.9720 92° East  Level FlightAware
Sat 03:26:00 AM 60.0743 -22.6843 92° East  Level FlightAware
Sat 03:27:00 AM 60.0689 -22.3968 92° East  Level FlightAware
Sat 03:28:00 AM 60.0630 -22.1094 92° East  Level FlightAware
Sat 03:29:00 AM 60.0564 -21.8220 93° East  Level FlightAware
Sat 03:30:00 AM 60.0492 -21.5348 93° East  Level FlightAware
Sat 03:31:00 AM 60.0413 -21.2477 93° East  Level FlightAware
Sat 03:32:00 AM 60.0329 -20.9608 93° East  Level FlightAware
Sat 03:33:00 AM 60.0238 -20.6740 94° East  Level FlightAware
Sat 03:34:00 AM 60.0141 -20.3873 94° East  Level FlightAware
Sat 03:35:00 AM 60.0038 -20.1009 94° East  Level FlightAware
Sat 03:36:00 AM 60.0228 -19.8197 76° East  Level FlightAware
Sat 03:37:00 AM 60.0576 -19.5408 76° East  Level FlightAware
Sat 03:38:00 AM 60.0918 -19.2613 76° East  Level FlightAware
Sat 03:39:00 AM 60.1253 -18.9812 76° East  Level FlightAware
Sat 03:40:00 AM 60.1583 -18.7005 77° East  Level FlightAware
Sat 03:41:00 AM 60.1907 -18.4193 77° East  Level FlightAware
Sat 03:42:00 AM 60.2225 -18.1376 77° East  Level FlightAware
Sat 03:43:00 AM 60.2537 -17.8553 77° East  Level FlightAware
Sat 03:44:00 AM 60.2843 -17.5725 78° East  Level FlightAware
Sat 03:45:00 AM 60.3143 -17.2891 78° East  Level FlightAware
Sat 03:46:00 AM 60.3437 -17.0053 78° East  Level FlightAware
Sat 03:47:00 AM 60.3725 -16.7209 78° East  Level FlightAware
Sat 03:48:00 AM 60.4007 -16.4360 79° East  Level FlightAware
Sat 03:49:00 AM 60.4282 -16.1507 79° East  Level FlightAware
Sat 03:50:00 AM 60.4552 -15.8648 79° East  Level FlightAware
Sat 03:51:00 AM 60.4815 -15.5785 79° East  Level FlightAware
Sat 03:52:00 AM 60.5073 -15.2917 80° East  Level FlightAware
Sat 03:53:00 AM 60.5324 -15.0045 80° East  Level FlightAware
Sat 03:54:00 AM 60.5569 -14.7169 80° East  Level FlightAware
Sat 03:55:00 AM 60.5808 -14.4288 80° East  Level FlightAware
Sat 03:56:00 AM 60.6040 -14.1403 81° East  Level FlightAware
Sat 03:57:00 AM 60.6267 -13.8513 81° East  Level FlightAware
Sat 03:58:00 AM 60.6487 -13.5620 81° East  Level FlightAware
Sat 03:59:00 AM 60.6701 -13.2723 81° East  Level FlightAware
Sat 04:00:00 AM 60.6908 -12.9822 82° East  Level FlightAware
Sat 04:01:00 AM 60.7109 -12.6917 82° East  Level FlightAware
Sat 04:02:00 AM 60.7304 -12.4009 82° East  Level FlightAware
Sat 04:03:00 AM 60.7493 -12.1098 82° East  Level FlightAware
Sat 04:04:00 AM 60.7676 -11.8183 83° East  Level FlightAware
Sat 04:05:00 AM 60.7852 -11.5264 83° East  Level FlightAware
Sat 04:06:00 AM 60.8021 -11.2343 83° East  Level FlightAware
Sat 04:07:00 AM 60.8185 -10.9418 83° East  Level FlightAware
Sat 04:08:00 AM 60.8342 -10.6491 84° East  Level FlightAware
Sat 04:09:00 AM 60.8492 -10.3561 84° East  Level FlightAware
Sat 04:10:00 AM 60.8637 -10.0628 84° East  Level FlightAware
Sat 04:11:00 AM 60.8782 -9.7694 84° East  Level FlightAware
Sat 04:12:00 AM 60.8922 -9.4757 84° East  Level FlightAware
Sat 04:13:00 AM 60.9056 -9.1818 85° East  Level FlightAware
Sat 04:14:00 AM 60.9184 -8.8877 85° East  Level FlightAware
Sat 04:15:00 AM 60.9305 -8.5934 85° East  Level FlightAware
Sat 04:16:00 AM 60.9419 -8.2988 85° East  Level FlightAware
Sat 04:17:00 AM 60.9528 -8.0040 86° East  Level FlightAware
Sat 04:18:00 AM 60.9629 -7.7090 86° East  Level FlightAware
Sat 04:18:43 AM 61.0450 -8.5730 86° East 497 572 35,000  Level FlightAware
Sat 04:19:00 AM 60.9725 -7.4138 86° East  Level FlightAware
Sat 04:19:19 AM 61.0500 -8.3920 87° East 498 573 35,000  Level FlightAware
Sat 04:20:00 AM 60.9814 -7.1185 86° East  Level FlightAware
Sat 04:20:28 AM 61.0580 -8.0560 87° East 501 577 35,000  Level FlightAware
Sat 04:21:04 AM 61.0620 -7.8890 87° East 504 580 35,000  Level FlightAware
Sat 04:22:15 AM 61.0680 -7.5530 88° East 505 581 35,000  Level FlightAware
Sat 04:22:49 AM 61.0720 -7.3830 87° East 506 582 35,000  Level FlightAware
Sat 04:23:19 AM 61.0740 -7.2410 88° East 506 582 35,000  Level FlightAware
Sat 04:23:54 AM 61.0770 -7.0680 88° East 506 582 35,000  Level FlightAware
Sat 04:24:24 AM 61.0790 -6.9210 88° East 504 580 35,000  Level FlightAware
Sat 04:24:59 AM 61.0810 -6.7570 88° East 504 580 35,000  Level FlightAware
Sat 04:25:29 AM 61.0830 -6.6130 88° East 505 581 35,000  Level FlightAware
Sat 04:26:34 AM 61.0860 -6.2990 89° East 503 579 35,000  Level FlightAware
Sat 04:27:10 AM 61.0870 -6.1930 89° East 502 578 35,000  Level FlightAware
Sat 04:27:47 AM 61.0890 -6.0140 89° East 502 578 35,000  Level FlightAware
Sat 04:28:19 AM 61.0900 -5.8800 89° East 503 579 35,000  Level FlightAware
Sat 04:28:52 AM 61.0900 -5.7220 90° East 504 580 35,000  Level FlightAware
Sat 04:29:40 AM 61.0920 -5.4090 89° East 508 585 35,000  Level FlightAware
Sat 04:30:10 AM 61.0920 -5.2630 90° East 507 583 35,000  Level FlightAware
Sat 04:30:40 AM 61.0930 -5.1240 89° East 507 583 35,000  Level FlightAware
Sat 04:31:49 AM 61.0920 -4.8440 90° East 511 588 35,000  Level FlightAware
Sat 04:32:29 AM 61.0920 -4.6580 90° East 511 588 35,000  Level FlightAware
Sat 04:33:07 AM 61.0920 -4.4790 90° East 513 590 35,000  Level FlightAware
Sat 04:33:39 AM 61.0910 -4.3150 91° East 513 590 35,000  Level FlightAware
Sat 04:34:12 AM 61.0900 -4.1410 91° East 513 590 35,000  Level FlightAware
Sat 04:34:42 AM 61.0890 -4.0050 91° East 513 590 35,000  Level FlightAware
Sat 04:35:43 AM 61.0870 -3.7260 91° East 514 592 35,000  Level FlightAware
Sat 04:36:16 AM 61.0850 -3.5620 91° East 515 593 35,000  Level FlightAware
Sat 04:36:50 AM 61.0830 -3.3890 91° East 515 593 35,000  Level FlightAware
Sat 04:37:30 AM 61.0810 -3.1980 91° East 514 592 35,000  Level FlightAware
Sat 04:38:11 AM 61.0780 -2.9990 92° East 515 593 35,000  Level FlightAware
Sat 04:38:36 AM 61.0770 -2.9200 91° East 516 594 35,000  Level FlightAware
Sat 04:39:08 AM 61.0740 -2.7800 92° East 516 594 35,000  Level FlightAware
Sat 04:39:35 AM 61.0720 -2.6440 92° East 515 593 35,000  Level FlightAware
Sat 04:40:11 AM 61.0680 -2.4420 92° East 517 595 35,000  Level FlightAware
Sat 04:40:36 AM 61.0660 -2.3250 92° East 517 595 35,000  Level FlightAware
Sat 04:41:27 AM 61.0580 -1.9480 92° East 518 596 35,000  Level FlightAware
Sat 04:42:17 AM 61.0520 -1.7000 93° East 519 597 35,000  Level FlightAware
Sat 04:42:49 AM 61.0480 -1.5460 93° East 518 596 35,000  Level FlightAware
Sat 04:43:37 AM 61.0420 -1.3060 93° East 518 596 35,000  Level FlightAware
Sat 04:44:08 AM 61.0380 -1.1510 93° East 518 596 35,000  Level FlightAware
Sat 04:44:37 AM 61.0330 -1.0050 94° East 519 597 35,000  Level FlightAware
Sat 04:45:16 AM 61.0280 -0.8150 93° East 522 601 35,000  Level FlightAware
Sat 04:46:05 AM 61.0200 -0.5730 94° East 522 601 35,000  Level FlightAware
Sat 04:46:36 AM 61.0150 -0.4160 94° East 520 598 35,000  Level FlightAware
Sat 04:47:11 AM 61.0090 -0.2530 94° East 520 598 35,000  Level FlightAware
Sat 04:47:46 AM 61.0030 -0.0780 94° East 519 597 35,000  Level FlightAware
Sat 04:48:23 AM 60.9880 0.1030 100° East 516 594 35,000  Level FlightAware
Sat 04:49:08 AM 60.9800 0.3250 94° East 519 597 35,000  Level FlightAware
Sat 04:49:45 AM 60.9770 0.5070 92° East 517 595 35,000  Level FlightAware
Sat 04:50:21 AM 60.9730 0.6800 93° East 517 595 35,000  Level FlightAware
Sat 04:50:57 AM 60.9690 0.8610 93° East 520 598 35,000  Level FlightAware
Sat 04:51:36 AM 60.9650 1.0510 92° East 520 598 35,000  Level FlightAware
Sat 04:52:09 AM 60.9610 1.2150 93° East 519 597 35,000  Level FlightAware
Sat 04:52:41 AM 60.9570 1.3720 93° East 518 596 35,000  Level FlightAware
Sat 04:53:18 AM 60.9520 1.5540 93° East 516 594 35,000  Level FlightAware
Sat 04:53:53 AM 60.9470 1.7250 93° East 517 595 35,000  Level FlightAware
Sat 04:54:42 AM 60.9390 1.9690 94° East 519 597 35,000  Level FlightAware
Sat 04:55:25 AM 60.9330 2.1780 93° East 520 598 35,000  Level FlightAware
Sat 04:55:53 AM 60.9280 2.3180 94° East 521 600 35,000  Level FlightAware
Sat 04:56:29 AM 60.9220 2.4880 94° East 520 598 35,000  Level FlightAware
Sat 04:57:05 AM 60.9150 2.6710 94° East 520 598 35,000  Level FlightAware
Sat 04:57:40 AM 60.9090 2.8430 94° East 522 601 35,000  Level FlightAware
Sat 04:58:12 AM 60.9030 3.0010 94° East 523 602 35,000  Level FlightAware
Sat 04:58:55 AM 60.8950 3.2110 94° East 523 602 35,000  Level FlightAware
Sat 05:00:01 AM 60.8810 3.5340 95° East 527 606 35,000  Level FlightAware
Sat 05:00:29 AM 60.8750 3.6750 95° East 528 608 35,000  Level FlightAware
Sat 05:01:00 AM 60.8680 3.8300 95° East 527 606 35,000  Level FlightAware
Sat 05:01:34 AM 60.8600 4.0020 95° East 527 606 35,000  Level FlightAware
Sat 05:02:34 AM 60.8460 4.3000 95° East 524 603 35,000  Level FlightAware
Sat 05:03:13 AM 60.8360 4.4900 96° East 523 602 35,000  Level FlightAware
Sat 05:03:46 AM 60.8280 4.6480 96° East 526 605 35,000  Level FlightAware
Sat 05:04:34 AM 60.8160 4.8850 96° East 532 612 35,000  Level FlightAware
Sat 05:05:06 AM 60.8070 5.0470 96° East 528 608 35,000  Level FlightAware
Sat 05:05:38 AM 60.7980 5.2060 97° East 526 605 35,000  Level FlightAware
Sat 05:06:41 AM 60.7807 5.5169 96° East 526 605 35,000  Level FlightAware
Sat 05:07:20 AM 60.7693 5.7098 97° East 520 598 35,000  Level FlightAware
Sat 05:07:50 AM 60.7603 5.8577 97° East 520 598 35,000  Level FlightAware
Sat 05:08:20 AM 60.7513 6.0036 97° East 521 600 35,000  Level FlightAware
Sat 05:08:51 AM 60.7421 6.1510 97° East 523 602 35,000  Level FlightAware
Sat 05:09:28 AM 60.7305 6.3328 97° East 523 602 35,000  Level FlightAware
Sat 05:09:59 AM 60.7205 6.4862 98° East 523 602 35,000  Level FlightAware
Sat 05:10:31 AM 60.7102 6.6411 98° East 527 606 35,000  Level FlightAware
Sat 05:11:01 AM 60.7002 6.7888 98° East 527 606 35,000  Level FlightAware
Sat 05:11:31 AM 60.6900 6.9362 98° East 527 606 35,000  Level FlightAware
Sat 05:12:07 AM 60.6777 7.1128 98° East 526 605 35,000  Level FlightAware
Sat 05:12:39 AM 60.6666 7.2680 98° East 525 604 35,000  Level FlightAware
Sat 05:13:21 AM 60.6516 7.4745 98° East 523 602 35,000  Level FlightAware
Sat 05:13:54 AM 60.6398 7.6347 99° East 522 601 35,000  Level FlightAware
Sat 05:15:02 AM 60.6150 7.9600 99° East 522 601 35,000  Level FlightAware
Sat 05:15:40 AM 60.6010 8.1410 99° East 524 603 35,000  Level FlightAware
Sat 05:16:22 AM 60.5840 8.3500 99° East 523 602 35,000  Level FlightAware
Sat 05:17:04 AM 60.5680 8.5480 99° East 517 595 35,000  Level FlightAware
Sat 05:17:36 AM 60.5550 8.7030 100° East 522 601 35,000  Level FlightAware
Sat 05:18:17 AM 60.5390 8.8930 100° East 523 602 35,000  Level FlightAware
Sat 05:18:54 AM 60.5240 9.0700 100° East 521 600 35,000  Level FlightAware
Sat 05:19:37 AM 60.5060 9.2810 100° East 523 602 35,000  Level FlightAware
Sat 05:20:16 AM 60.4890 9.4740 100° East 522 601 35,000  Level FlightAware
Sat 05:20:51 AM 60.4740 9.6350 101° East 524 603 35,000  Level FlightAware
Sat 05:21:32 AM 60.4550 9.8450 100° East 524 603 35,000  Level FlightAware
Sat 05:22:00 AM 60.4430 9.9790 100° East 521 600 35,000  Level FlightAware
Sat 05:22:31 AM 60.4290 10.1250 101° East 520 598 35,000  Level FlightAware
Sat 05:23:08 AM 60.4120 10.3010 101° East 520 598 35,000  Level FlightAware
Sat 05:23:46 AM 60.3950 10.4830 101° East 518 596 35,000  Level FlightAware
Sat 05:24:36 AM 60.3710 10.7180 102° East 514 592 35,000  Level FlightAware
Sat 05:25:21 AM 60.3500 10.9290 101° East 512 589 35,000  Level FlightAware
Sat 05:25:56 AM 60.3340 11.0910 101° East 517 595 35,000  Level FlightAware
Sat 05:26:36 AM 60.3140 11.2790 102° East 517 595 35,000  Level FlightAware
Sat 05:27:10 AM 60.2980 11.4380 101° East 519 597 35,000  Level FlightAware
Sat 05:27:58 AM 60.2740 11.6640 102° East 516 594 35,000  Level FlightAware
Sat 05:28:45 AM 60.2500 11.8850 102° East 510 587 35,000  Level FlightAware
Sat 05:29:25 AM 60.2300 12.0690 102° East 510 587 35,000  Level FlightAware
Sat 05:30:10 AM 60.2060 12.2770 103° East 512 589 35,000  Level FlightAware
Sat 05:30:54 AM 60.1830 12.4800 103° East 518 596 35,000  Level FlightAware
Sat 05:31:33 AM 60.1620 12.6640 103° East 520 598 35,000  Level FlightAware
Sat 05:32:24 AM 60.1340 12.9040 103° East 518 596 35,000  Level FlightAware
Sat 05:33:16 AM 60.1080 13.1300 103° East 517 595 35,000  Level FlightAware
Sat 05:34:32 AM 60.0640 13.4920 104° East 516 594 35,000  Level FlightAware
Sat 05:35:37 AM 60.0270 13.7910 104° East 511 588 35,000  Level FlightAware
Sat 05:36:07 AM 60.0100 13.9240 104° East 511 588 35,000  Level FlightAware
Sat 05:36:52 AM 59.9830 14.1360 104° East 513 590 35,000  Level FlightAware
Sat 05:37:31 AM 59.9600 14.3160 104° East 514 592 35,000  Level FlightAware
Sat 05:38:08 AM 59.9380 14.4830 105° East 516 594 35,000  Level FlightAware
Sat 05:38:47 AM 59.9140 14.6630 105° East 518 596 35,000  Level FlightAware
Sat 05:39:30 AM 59.8880 14.8630 104° East 517 595 35,000  Level FlightAware
Sat 05:40:12 AM 59.8630 15.0500 105° East 515 593 35,000  Level FlightAware
Sat 05:41:25 AM 59.8170 15.3860 105° East 512 589 35,000  Level FlightAware
Sat 05:41:51 AM 59.8000 15.5060 106° East 516 594 35,000  Level FlightAware
Sat 05:42:22 AM 59.7810 15.6430 105° East 521 600 35,000  Level FlightAware
Sat 05:43:03 AM 59.7540 15.8310 106° East 521 600 35,000  Level FlightAware
Sat 05:43:39 AM 59.7300 15.9980 106° East 513 590 35,000  Level FlightAware
Sat 05:44:18 AM 59.7040 16.1730 106° East 508 585 35,000  Level FlightAware
Sat 05:45:30 AM 59.6580 16.4890 106° East 506 582 35,000  Level FlightAware
Sat 05:45:58 AM 59.6390 16.6140 107° East 506 582 35,000  Level FlightAware
Sat 05:46:42 AM 59.6110 16.8050 106° East 503 579 35,000  Level FlightAware
Sat 05:47:16 AM 59.5870 16.9580 107° East 504 580 35,000  Level FlightAware
Sat 05:48:02 AM 59.5570 17.1580 106° East 504 580 35,000  Level FlightAware
Sat 05:49:11 AM 59.5090 17.4610 107° East 505 581 35,000  Level FlightAware
Sat 05:49:44 AM 59.4860 17.6060 107° East 510 587 35,000  Level FlightAware
Sat 05:50:23 AM 59.4590 17.7780 107° East 507 583 35,000  Level FlightAware
Sat 05:51:04 AM 59.4300 17.9560 108° East 507 583 35,000  Level FlightAware
Sat 05:51:55 AM 59.3940 18.1800 107° East 504 580 35,000  Level FlightAware
Sat 05:52:30 AM 59.3680 18.3340 108° East 503 579 35,000  Level FlightAware
Sat 05:53:11 AM 59.3400 18.5040 108° East 506 582 35,000  Level FlightAware
Sat 05:53:38 AM 59.3200 18.6260 108° East 508 585 35,000  Level FlightAware
Sat 05:54:27 AM 59.2830 18.8420 108° East 512 589 35,000  Level FlightAware
Sat 05:55:03 AM 59.2550 19.0060 108° East 512 589 35,000  Level FlightAware
Sat 05:55:32 AM 59.2340 19.1280 109° East 514 592 35,000  Level FlightAware
Sat 05:56:14 AM 59.2020 19.3120 109° East 515 593 35,000  Level FlightAware
Sat 05:56:54 AM 59.1710 19.4870 109° East 517 595 35,000  Level FlightAware
Sat 05:57:36 AM 59.1390 19.6700 109° East 515 593 35,000  Level FlightAware
Sat 05:58:19 AM 59.1070 19.8490 109° East 513 590 35,000  Level FlightAware
Sat 05:58:54 AM 59.0780 20.0090 109° East 515 593 35,000  Level FlightAware
Sat 06:00:06 AM 59.0210 20.3200 109° East 516 594 35,000  Level FlightAware
Sat 06:00:48 AM 58.9860 20.5080 110° East 517 595 35,000  Level FlightAware
Sat 06:01:34 AM 58.9500 20.7040 110° East 519 597 35,000  Level FlightAware
Sat 06:02:14 AM 58.9170 20.8770 110° East 520 598 35,000  Level FlightAware
Sat 06:02:54 AM 58.8900 21.0560 106° East 522 601 35,000  Level FlightAware
Sat 06:03:28 AM 58.8710 21.2120 103° East 522 601 35,000  Level FlightAware
Sat 06:04:06 AM 58.8500 21.3810 103° East 522 601 35,000  Level FlightAware
Sat 06:04:46 AM 58.8270 21.5600 104° East 522 601 35,000  Level FlightAware
Sat 06:05:30 AM 58.8020 21.7580 104° East 520 598 35,000  Level FlightAware
Sat 06:05:58 AM 58.7850 21.8860 104° East 519 597 35,000  Level FlightAware
Sat 06:06:34 AM 58.7650 22.0420 104° East 519 597 35,000  Level FlightAware
Sat 06:07:09 AM 58.7430 22.2060 104° East 518 596 35,000  Level FlightAware
Sat 06:07:49 AM 58.7190 22.3810 105° East 517 595 35,000  Level FlightAware
Sat 06:08:28 AM 58.6950 22.5570 105° East 520 598 35,000  Level FlightAware
Sat 06:08:58 AM 58.6780 22.6840 104° East 523 602 35,000  Level FlightAware
Sat 06:09:32 AM 58.6560 22.8420 105° East 525 604 35,000  Level FlightAware
Sat 06:10:40 AM 58.6140 23.1420 105° East 527 606 35,000  Level FlightAware
Sat 06:11:16 AM 58.5910 23.3060 105° East 527 606 35,000  Level FlightAware
Sat 06:12:02 AM 58.5660 23.4790 105° East 526 605 35,000  Level FlightAware
Sat 06:12:39 AM 58.5360 23.6820 106° East 521 600 35,000  Level FlightAware
Sat 06:13:14 AM 58.5140 23.8340 105° East 523 602 35,000  Level FlightAware
Sat 06:13:49 AM 58.4900 23.9900 106° East 525 604 35,000  Level FlightAware
Sat 06:14:19 AM 58.4710 24.1180 106° East 527 606 35,000  Level FlightAware
Sat 06:15:09 AM 58.4370 24.3440 106° East 528 608 35,000  Level FlightAware
Sat 06:15:49 AM 58.4100 24.5170 107° East 528 608 35,000  Level FlightAware
Sat 06:16:24 AM 58.3820 24.6780 108° East 526 605 35,000  Level FlightAware
Sat 06:17:04 AM 58.3500 24.8530 109° East 525 604 35,000  Level FlightAware
Sat 06:17:39 AM 58.3230 25.0050 109° East 525 604 35,000  Level FlightAware
Sat 06:18:19 AM 58.2910 25.1820 109° East 524 603 35,000  Level FlightAware
Sat 06:18:47 AM 58.2690 25.3000 109° East 522 601 35,000  Level FlightAware
Sat 06:19:27 AM 58.2370 25.4730 109° East 520 598 35,000  Level FlightAware
Sat 06:19:55 AM 58.2150 25.5910 109° East 520 598 35,000  Level FlightAware
Sat 06:20:39 AM 58.1800 25.7820 109° East 521 600 35,000  Level FlightAware
Sat 06:21:23 AM 58.1450 25.9640 110° East 522 601 35,000  Level FlightAware
Sat 06:22:11 AM 58.1050 26.1760 110° East 521 600 35,000  Level FlightAware
Sat 06:22:56 AM 58.0680 26.3690 110° East 522 601 35,000  Level FlightAware
Sat 06:23:48 AM 58.0240 26.5920 110° East 520 598 35,000  Level FlightAware
Sat 06:24:19 AM 57.9990 26.7210 110° East 519 597 35,000  Level FlightAware
Sat 06:24:52 AM 57.9710 26.8620 110° East 516 594 35,000  Level FlightAware
Sat 06:25:33 AM 57.9370 27.0330 110° East 515 593 35,000  Level FlightAware
Sat 06:26:16 AM 57.9000 27.2140 111° Southeast 516 594 35,000  Level FlightAware
Sat 06:27:04 AM 57.8600 27.4120 111° Southeast 519 597 35,000  Level FlightAware
Sat 06:27:41 AM 57.8220 27.5620 115° Southeast 514 592 35,000  Level FlightAware
Sat 06:28:12 AM 57.7850 27.6800 120° Southeast 514 592 35,000  Level FlightAware
Sat 06:28:53 AM 57.7360 27.8370 120° Southeast 516 594 35,000  Level FlightAware
Sat 06:29:21 AM 57.7010 27.9430 122° Southeast 515 593 35,000  Level FlightAware
Sat 06:30:02 AM 57.6490 28.0980 122° Southeast 516 594 35,000  Level FlightAware
Sat 06:30:41 AM 57.5990 28.2450 122° Southeast 515 593 35,000  Level FlightAware
Sat 06:31:22 AM 57.5470 28.4000 122° Southeast 516 594 35,000  Level FlightAware
Sat 06:32:01 AM 57.4970 28.5460 122° Southeast 514 592 35,000  Level FlightAware
Sat 06:32:42 AM 57.4460 28.6940 123° Southeast 511 588 35,000  Level FlightAware
Sat 06:33:14 AM 57.4040 28.8150 123° Southeast 511 588 35,000  Level FlightAware
Sat 06:34:02 AM 57.3430 28.9920 123° Southeast 516 594 35,000  Level FlightAware
Sat 06:34:33 AM 57.3050 29.1000 123° Southeast 516 594 35,000  Level FlightAware
Sat 06:35:10 AM 57.2550 29.2410 123° Southeast 515 593 35,000  Level FlightAware
Sat 06:35:52 AM 57.2010 29.3940 123° Southeast 515 593 35,000  Level FlightAware
Sat 06:36:36 AM 57.1430 29.5580 123° Southeast 514 592 35,000  Level FlightAware
Sat 06:37:00 AM 57.1120 29.6450 123° Southeast 514 592 35,000  Level FlightAware
Sat 06:37:54 AM 57.0440 29.8330 124° Southeast 514 592 35,000  Level FlightAware
Sat 06:38:18 AM 57.0240 29.8880 124° Southeast 512 589 35,000  Level FlightAware
Sat 06:39:14 AM 56.9390 30.1220 124° Southeast 514 592 35,000  Level FlightAware
Sat 06:39:54 AM 56.8850 30.2690 124° Southeast 511 588 35,000  Level FlightAware
Sat 06:40:34 AM 56.8340 30.4090 124° Southeast 511 588 35,000  Level FlightAware
Sat 06:41:14 AM 56.7820 30.5490 124° Southeast 515 593 35,000  Level FlightAware
Sat 06:41:59 AM 56.7230 30.7050 125° Southeast 512 589 35,000  Level FlightAware
Sat 06:42:33 AM 56.6720 30.8130 131° Southeast 505 581 35,000  Level FlightAware
Sat 06:43:18 AM 56.6020 30.9680 129° Southeast 502 578 35,000  Level FlightAware
Sat 06:43:53 AM 56.5510 31.0830 129° Southeast 502 578 35,000  Level FlightAware
Sat 06:44:44 AM 56.4900 31.2290 127° Southeast 502 578 35,000  Level FlightAware
Sat 06:45:20 AM 56.4480 31.3320 126° Southeast 502 578 35,000  Level FlightAware
Sat 06:45:57 AM 56.4040 31.4370 127° Southeast 502 578 35,000  Level FlightAware
Sat 06:46:33 AM 56.3610 31.5400 127° Southeast 502 578 35,000  Level FlightAware
Sat 06:47:09 AM 56.3180 31.6420 127° Southeast 502 578 35,000  Level FlightAware
Sat 06:47:45 AM 56.2750 31.7440 127° Southeast 502 578 35,000  Level FlightAware
Sat 06:48:59 AM 56.1590 32.1680 116° Southeast 508 585 35,000  Level FlightAware
Sat 06:49:34 AM 56.1130 32.2870 125° Southeast 508 585 35,000  Level FlightAware
Sat 06:50:19 AM 56.0520 32.4390 126° Southeast 507 583 35,000  Level FlightAware
Sat 06:50:54 AM 56.0050 32.5590 125° Southeast 505 581 35,000  Level FlightAware
Sat 06:51:39 AM 55.9440 32.7140 125° Southeast 507 583 35,000  Level FlightAware
Sat 06:52:29 AM 55.8780 32.8800 125° Southeast 508 585 35,000  Level FlightAware
Sat 06:53:04 AM 55.8250 32.9960 129° Southeast 502 578 35,000  Level FlightAware
Sat 06:53:49 AM 55.7570 33.1390 130° Southeast 505 581 35,000  Level FlightAware
Sat 06:54:19 AM 55.7130 33.2340 129° Southeast 505 581 35,000  Level FlightAware
Sat 06:54:59 AM 55.6520 33.3590 131° Southeast 506 582 35,000  Level FlightAware
Sat 06:55:35 AM 55.5990 33.4690 130° Southeast 508 585 35,000  Level FlightAware
Sat 06:56:09 AM 55.5450 33.5790 131° Southeast 508 585 35,000  Level FlightAware
Sat 06:56:36 AM 55.5060 33.6580 131° Southeast 507 583 35,000  Level FlightAware
Sat 06:57:24 AM 55.4300 33.8140 131° Southeast 505 581 35,000  Level FlightAware
Sat 06:58:05 AM 55.3700 33.9390 130° Southeast 508 585 35,000  Level FlightAware
Sat 06:58:44 AM 55.3100 34.0650 130° Southeast 506 582 35,000  Level FlightAware
Sat 06:59:19 AM 55.2570 34.1750 130° Southeast 508 585 35,000  Level FlightAware
Sat 06:59:59 AM 55.1980 34.2970 130° Southeast 505 581 35,000  Level FlightAware
Sat 07:00:29 AM 55.1510 34.3920 131° Southeast 504 580 35,000  Level FlightAware
Sat 07:01:09 AM 55.0920 34.5130 130° Southeast 502 578 35,000  Level FlightAware
Sat 07:01:49 AM 55.0300 34.6340 132° Southeast 501 577 35,000  Level FlightAware
Sat 07:02:14 AM 54.9930 34.7080 131° Southeast 501 577 35,000  Level FlightAware
Sat 07:02:54 AM 54.9310 34.8340 131° Southeast 503 579 35,000  Level FlightAware
Sat 07:03:44 AM 54.8590 34.9940 128° Southeast 512 589 35,000  Level FlightAware
Sat 07:04:24 AM 54.8130 35.1360 119° Southeast 517 595 35,000  Level FlightAware
Sat 07:04:59 AM 54.7810 35.2700 112° Southeast 518 596 35,000  Level FlightAware
Sat 07:05:49 AM 54.7510 35.4720 104° East 520 598 35,000  Level FlightAware
Sat 07:06:39 AM 54.7390 35.6780 96° East 520 598 35,000  Level FlightAware
Sat 07:07:09 AM 54.7390 35.7940 90° East 520 598 35,000  Level FlightAware
Sat 07:07:59 AM 54.7370 36.0070 91° East 520 598 35,000  Level FlightAware
Sat 07:08:44 AM 54.7360 36.1950 90° East 519 597 35,000  Level FlightAware
Sat 07:09:29 AM 54.7350 36.3820 90° East 519 597 35,000  Level FlightAware
Sat 07:09:59 AM 54.7340 36.5050 91° East 520 598 35,000  Level FlightAware
Sat 07:10:39 AM 54.7230 36.6710 96° East 518 596 35,000  Level FlightAware
Sat 07:10:59 AM 54.7130 36.7480 103° East 517 595 35,000  Level FlightAware
Sat 07:11:58 AM 54.6710 36.9820 107° East 517 595 35,000  Level FlightAware
Sat 07:12:34 AM 54.6470 37.1180 107° East 519 597 35,000  Level FlightAware
Sat 07:13:14 AM 54.6170 37.2790 108° East 516 594 35,000  Level FlightAware
Sat 07:13:54 AM 54.5770 37.4290 115° Southeast 511 588 35,000  Level FlightAware
Sat 07:14:39 AM 54.5310 37.5890 116° Southeast 515 593 35,000  Level FlightAware
Sat 07:15:18 AM 54.4880 37.7380 116° Southeast 518 596 35,000  Level FlightAware
Sat 07:15:58 AM 54.4470 37.8820 116° Southeast 518 596 35,000  Level FlightAware
Sat 07:16:34 AM 54.4110 38.0110 116° Southeast 517 595 35,000  Level FlightAware
Sat 07:17:15 AM 54.3670 38.1660 116° Southeast 515 593 35,000  Level FlightAware
Sat 07:17:50 AM 54.3380 38.2910 112° Southeast 518 596 35,000  Level FlightAware
Sat 07:18:38 AM 54.3060 38.4880 105° East 514 592 35,000  Level FlightAware
Sat 07:19:18 AM 54.2810 38.6470 105° East 514 592 35,000  Level FlightAware
Sat 07:19:58 AM 54.2560 38.8030 105° East 518 596 35,000  Level FlightAware
Sat 07:20:38 AM 54.2310 38.9620 105° East 521 600 35,000  Level FlightAware
Sat 07:21:10 AM 54.2130 39.0880 104° East 519 597 35,000  Level FlightAware
Sat 07:21:46 AM 54.1930 39.2300 103° East 516 594 35,000  Level FlightAware
Sat 07:22:26 AM 54.1700 39.3910 104° East 516 594 35,000  Level FlightAware
Sat 07:23:10 AM 54.1450 39.5620 104° East 517 595 35,000  Level FlightAware
Sat 07:23:38 AM 54.1280 39.6750 104° East 518 596 35,000  Level FlightAware
Sat 07:24:25 AM 54.1000 39.8620 104° East 517 595 35,000  Level FlightAware
Sat 07:25:33 AM 54.0600 40.1270 104° East 517 595 35,000  Level FlightAware
Sat 07:26:06 AM 54.0410 40.2530 104° East 518 596 35,000  Level FlightAware
Sat 07:26:46 AM 54.0150 40.4170 105° East 519 597 35,000  Level FlightAware
Sat 07:27:27 AM 53.9910 40.5760 104° East 518 596 35,000  Level FlightAware
Sat 07:27:54 AM 53.9750 40.6760 105° East 517 595 35,000  Level FlightAware
Sat 07:28:35 AM 53.9490 40.8430 105° East 518 596 35,000  Level FlightAware
Sat 07:29:10 AM 53.9270 40.9790 105° East 518 596 35,000  Level FlightAware
Sat 07:29:55 AM 53.8990 41.1560 105° East 516 594 35,000  Level FlightAware
Sat 07:30:41 AM 53.8710 41.3320 105° East 516 594 35,000  Level FlightAware
Sat 07:31:26 AM 53.8420 41.5140 105° East 518 596 35,000  Level FlightAware
Sat 07:32:06 AM 53.8170 41.6680 105° East 519 597 35,000  Level FlightAware
Sat 07:32:42 AM 53.7940 41.8090 105° East 520 598 35,000  Level FlightAware
Sat 07:33:27 AM 53.7660 41.9810 105° East 519 597 35,000  Level FlightAware
Sat 07:34:07 AM 53.7390 42.1380 106° East 517 595 35,000  Level FlightAware
Sat 07:34:55 AM 53.7080 42.3270 105° East 516 594 35,000  Level FlightAware
Sat 07:35:36 AM 53.6810 42.4830 106° East 516 594 35,000  Level FlightAware
Sat 07:36:08 AM 53.6610 42.6070 105° East 516 594 35,000  Level FlightAware
Sat 07:36:43 AM 53.6480 42.7480 99° East 514 592 35,000  Level FlightAware
Sat 07:37:19 AM 53.6440 42.8790 93° East 513 590 35,000  Level FlightAware
Sat 07:38:13 AM 53.6370 43.1010 93° East 513 590 35,000  Level FlightAware
Sat 07:38:58 AM 53.6310 43.2800 93° East 517 595 35,000  Level FlightAware
Sat 07:39:33 AM 53.6260 43.4240 93° East 520 598 35,000  Level FlightAware
Sat 07:40:18 AM 53.6190 43.6060 94° East 523 602 35,000  Level FlightAware
Sat 07:41:08 AM 53.6120 43.8060 93° East 521 600 35,000  Level FlightAware
Sat 07:41:53 AM 53.6050 43.9890 94° East 520 598 35,000  Level FlightAware
Sat 07:43:03 AM 53.5740 44.2650 101° East 518 596 35,000  Level FlightAware
Sat 07:43:38 AM 53.5510 44.4000 106° East 520 598 35,000  Level FlightAware
Sat 07:44:08 AM 53.5320 44.5120 106° East 519 597 35,000  Level FlightAware
Sat 07:44:58 AM 53.4990 44.7090 106° East 519 597 35,000  Level FlightAware
Sat 07:45:43 AM 53.4680 44.8840 107° East 522 601 35,000  Level FlightAware
Sat 07:46:28 AM 53.4370 45.0600 106° East 523 602 35,000  Level FlightAware
Sat 07:47:13 AM 53.4070 45.2320 106° East 520 598 35,000  Level FlightAware
Sat 07:47:53 AM 53.3790 45.3850 107° East 520 598 35,000  Level FlightAware
Sat 07:48:43 AM 53.3440 45.5790 107° East 519 597 35,000  Level FlightAware
Sat 07:49:13 AM 53.3230 45.6930 107° East 518 596 35,000  Level FlightAware
Sat 07:50:23 AM 53.2740 45.9600 107° East 519 597 35,000  Level FlightAware
Sat 07:51:03 AM 53.2460 46.1120 107° East 519 597 35,000  Level FlightAware
Sat 07:51:38 AM 53.2210 46.2460 107° East 520 598 35,000  Level FlightAware
Sat 07:52:18 AM 53.1920 46.3970 108° East 520 598 35,000  Level FlightAware
Sat 07:52:58 AM 53.1630 46.5510 107° East 519 597 35,000  Level FlightAware
Sat 07:53:33 AM 53.1370 46.6830 108° East 518 596 35,000  Level FlightAware
Sat 07:54:08 AM 53.1130 46.8100 107° East 520 598 35,000  Level FlightAware
Sat 07:54:48 AM 53.0820 46.9680 108° East 520 598 35,000  Level FlightAware
Sat 07:55:28 AM 53.0520 47.1200 108° East 519 597 35,000  Level FlightAware
Sat 07:55:58 AM 53.0300 47.2310 108° East 520 598 35,000  Level FlightAware
Sat 07:56:38 AM 53.0000 47.3840 108° East 518 596 35,000  Level FlightAware
Sat 07:57:08 AM 52.9740 47.4960 111° Southeast 517 595 35,000  Level FlightAware
Sat 07:57:38 AM 52.9450 47.6020 114° Southeast 516 594 35,000 257 Level FlightAware
Sat 07:58:18 AM 52.9060 47.7450 114° Southeast 516 594 35,300 720 Climbing FlightAware
Sat 07:58:53 AM 52.8720 47.8730 114° Southeast 521 600 35,900 1,015 Climbing FlightAware
Sat 07:59:23 AM 52.8430 47.9780 115° Southeast 524 603 36,400 733 Climbing FlightAware
Sat 08:00:23 AM 52.7820 48.1950 115° Southeast 518 596 37,000 379 Climbing FlightAware
Sat 08:00:58 AM 52.7460 48.3250 115° Southeast 521 600 37,000  Level FlightAware
Sat 08:01:54 AM 52.6900 48.5250 115° Southeast 525 604 37,000  Level FlightAware
Sat 08:02:28 AM 52.6550 48.6470 115° Southeast 524 603 37,000  Level FlightAware
Sat 08:03:08 AM 52.6130 48.7950 115° Southeast 521 600 37,000  Level FlightAware
Sat 08:03:48 AM 52.5730 48.9390 115° Southeast 521 600 37,000  Level FlightAware
Sat 08:04:33 AM 52.5270 49.0980 115° Southeast 520 598 37,000  Level FlightAware
Sat 08:05:18 AM 52.4810 49.2570 115° Southeast 522 601 37,000  Level FlightAware
Sat 08:05:54 AM 52.4450 49.3810 115° Southeast 522 601 37,000  Level FlightAware
Sat 08:06:33 AM 52.4030 49.5260 115° Southeast 522 601 37,000  Level FlightAware
Sat 08:07:08 AM 52.3670 49.6500 115° Southeast 520 598 37,000  Level FlightAware
Sat 08:07:58 AM 52.3150 49.8260 116° Southeast 519 597 37,000  Level FlightAware
Sat 08:08:33 AM 52.2800 49.9430 116° Southeast 518 596 37,000  Level FlightAware
Sat 08:09:13 AM 52.2360 50.0890 116° Southeast 517 595 37,000  Level FlightAware
Sat 08:09:53 AM 52.1950 50.2270 116° Southeast 518 596 37,000  Level FlightAware
Sat 08:10:43 AM 52.1300 50.3920 123° Southeast 518 596 37,000  Level FlightAware
Sat 08:11:13 AM 52.0840 50.4810 130° Southeast 518 596 37,000  Level FlightAware
Sat 08:11:38 AM 52.0410 50.5510 135° Southeast 517 595 37,000  Level FlightAware
Sat 08:12:43 AM 51.9200 50.7030 142° Southeast 515 593 37,000  Level FlightAware
Sat 08:13:18 AM 51.8530 50.7860 143° Southeast 515 593 37,000  Level FlightAware
Sat 08:13:53 AM 51.7850 50.8630 145° Southeast 513 590 37,000  Level FlightAware
Sat 08:14:33 AM 51.7080 50.9480 146° Southeast 514 592 37,000  Level FlightAware
Sat 08:15:14 AM 51.6290 51.0350 146° Southeast 513 590 37,000  Level FlightAware
Sat 08:15:48 AM 51.5580 51.1090 147° Southeast 512 589 37,000  Level FlightAware
Sat 08:16:28 AM 51.4840 51.1870 147° Southeast 512 589 37,000  Level FlightAware
Sat 08:17:13 AM 51.3910 51.2850 147° Southeast 511 588 37,000  Level FlightAware
Sat 08:17:59 AM 51.3040 51.3770 147° Southeast 513 590 37,000  Level FlightAware
Sat 08:18:44 AM 51.2230 51.4610 147° Southeast 514 592 37,000  Level FlightAware
Sat 08:19:17 AM 51.1510 51.5470 143° Southeast 514 592 37,000  Level FlightAware
Sat 08:19:57 AM 51.0910 51.6430 135° Southeast 514 592 37,000  Level FlightAware
Sat 08:20:37 AM 51.0320 51.7580 129° Southeast 513 590 37,000  Level FlightAware
Sat 08:21:09 AM 50.9790 51.8650 128° Southeast 511 588 37,000  Level FlightAware
Sat 08:22:05 AM 50.9000 52.0180 129° Southeast 510 587 37,000  Level FlightAware
Sat 08:22:45 AM 50.8370 52.1370 130° Southeast 510 587 37,000  Level FlightAware
Sat 08:23:17 AM 50.7910 52.2260 129° Southeast 510 587 37,000  Level FlightAware
Sat 08:24:05 AM 50.7250 52.3510 130° Southeast 510 587 37,000  Level FlightAware
Sat 08:24:45 AM 50.6610 52.4710 130° Southeast 510 587 37,000  Level FlightAware
Sat 08:25:33 AM 50.5870 52.6110 130° Southeast 508 585 37,000  Level FlightAware
Sat 08:26:05 AM 50.5380 52.7030 130° Southeast 506 582 37,000  Level FlightAware
Sat 08:26:38 AM 50.4960 52.7810 130° Southeast 506 582 37,000  Level FlightAware
Sat 08:27:25 AM 50.4140 52.9330 130° Southeast 504 580 37,000  Level FlightAware
Sat 08:27:54 AM 50.3790 52.9980 130° Southeast 504 580 37,000  Level FlightAware
Sat 08:28:51 AM 50.2870 53.1670 130° Southeast 505 581 37,000  Level FlightAware
Sat 08:29:14 AM 50.2530 53.2300 130° Southeast 505 581 37,000  Level FlightAware
Sat 08:30:02 AM 50.1790 53.3650 131° Southeast 505 581 37,000  Level FlightAware
Sat 08:30:34 AM 50.1340 53.4470 131° Southeast 504 580 37,000  Level FlightAware
Sat 08:31:41 AM 50.0500 53.6010 130° Southeast 502 578 37,000  Level FlightAware
Sat 08:32:02 AM 50.0100 53.6720 131° Southeast 502 578 37,000  Level FlightAware
Sat 08:32:53 AM 49.9450 53.7910 130° Southeast 502 578 37,000  Level FlightAware
Sat 08:33:30 AM 49.8650 53.9310 132° Southeast 501 577 37,000  Level FlightAware
Sat 08:34:31 AM 49.7860 54.0720 131° Southeast 501 577 37,000  Level FlightAware
Sat 08:34:55 AM 49.7550 54.1270 131° Southeast 501 577 37,000  Level FlightAware
Sat 08:35:43 AM 49.6930 54.2380 131° Southeast 501 577 37,000  Level FlightAware
Sat 08:36:07 AM 49.6620 54.2930 131° Southeast 501 577 37,000  Level FlightAware
Sat 08:36:43 AM 49.6150 54.3750 131° Southeast 501 577 37,000  Level FlightAware
Sat 08:37:31 AM 49.5530 54.4860 131° Southeast 501 577 37,000  Level FlightAware
Sat 08:38:07 AM 49.5060 54.5680 131° Southeast 501 577 37,000  Level FlightAware
Sat 08:39:19 AM 49.4130 54.7330 131° Southeast 501 577 37,000  Level FlightAware
Sat 08:39:55 AM 49.3670 54.8150 131° Southeast 501 577 37,000  Level FlightAware
Sat 08:40:31 AM 49.3200 54.8970 131° Southeast 501 577 37,000  Level FlightAware
Sat 08:41:19 AM 49.2580 55.0060 131° Southeast 501 577 37,000  Level FlightAware
Sat 08:41:55 AM 49.2120 55.0880 131° Southeast 501 577 37,000  Level FlightAware
Sat 08:42:44 AM 49.1480 55.2000 131° Southeast 501 577 37,000  Level FlightAware
Sat 08:43:20 AM 49.1020 55.2820 131° Southeast 501 577 37,000 28 Level FlightAware
Sat 08:46:00 AM 48.8938 55.7717 123° Southeast  Level Estimated
Sat 08:47:00 AM 48.8153 55.9543 123° Southeast  Level Estimated
Sat 08:48:00 AM 48.7364 56.1363 123° Southeast  Level Estimated
Sat 08:49:00 AM 48.6572 56.3178 123° Southeast  Level Estimated
Sat 08:50:00 AM 48.5778 56.4986 124° Southeast  Level Estimated
Sat 08:51:00 AM 48.4980 56.6789 124° Southeast  Level Estimated
Sat 08:52:00 AM 48.4180 56.8587 124° Southeast  Level Estimated
Sat 08:53:00 AM 48.3377 57.0378 124° Southeast  Level Estimated
Sat 08:54:00 AM 48.2572 57.2165 124° Southeast  Level Estimated
Sat 08:55:00 AM 48.1763 57.3945 124° Southeast  Level Estimated
Sat 08:56:00 AM 48.0952 57.5720 124° Southeast  Level Estimated
Sat 08:57:00 AM 48.0138 57.7489 124° Southeast  Level Estimated
Sat 08:58:00 AM 47.9322 57.9253 125° Southeast  Level Estimated
Sat 08:59:00 AM 47.8502 58.1011 125° Southeast  Level Estimated
Sat 09:00:00 AM 47.7680 58.2763 125° Southeast  Level Estimated
Sat 09:01:00 AM 47.6856 58.4510 125° Southeast  Level Estimated
Sat 09:02:00 AM 47.6028 58.6252 125° Southeast  Level Estimated
Sat 09:03:00 AM 47.5198 58.7988 125° Southeast  Level Estimated
Sat 09:04:00 AM 47.4366 58.9718 125° Southeast  Level Estimated
Sat 09:05:00 AM 47.3531 59.1443 126° Southeast  Level Estimated
Sat 09:06:00 AM 47.2693 59.3163 126° Southeast  Level Estimated
Sat 09:07:00 AM 47.1853 59.4877 126° Southeast  Level Estimated
Sat 09:08:00 AM 47.1010 59.6585 126° Southeast  Level Estimated
Sat 09:09:00 AM 47.0165 59.8289 126° Southeast  Level Estimated
Sat 09:10:00 AM 46.9317 59.9986 126° Southeast  Level Estimated
Sat 09:11:00 AM 46.8466 60.1679 126° Southeast  Level Estimated
Sat 09:12:00 AM 46.7614 60.3366 126° Southeast  Level Estimated
Sat 09:13:00 AM 46.6758 60.5048 127° Southeast  Level Estimated
Sat 09:14:00 AM 46.5900 60.6724 127° Southeast  Level Estimated
Sat 09:15:00 AM 46.5040 60.8396 127° Southeast  Level Estimated
Sat 09:16:00 AM 46.4178 61.0061 127° Southeast  Level Estimated
Sat 09:17:00 AM 46.3313 61.1722 127° Southeast  Level Estimated
Sat 09:18:00 AM 46.2445 61.3377 127° Southeast  Level Estimated
Sat 09:19:00 AM 46.1576 61.5027 127° Southeast  Level Estimated
Sat 09:20:00 AM 46.0703 61.6672 127° Southeast  Level Estimated
Sat 09:21:00 AM 45.9829 61.8312 127° Southeast  Level Estimated
Sat 09:22:00 AM 45.8952 61.9947 128° Southeast  Level Estimated
Sat 09:23:00 AM 45.8073 62.1576 128° Southeast  Level Estimated
Sat 09:24:00 AM 45.7191 62.3200 128° Southeast  Level Estimated
Sat 09:25:00 AM 45.6307 62.4819 128° Southeast  Level Estimated
Sat 09:26:00 AM 45.5421 62.6433 128° Southeast  Level Estimated
Sat 09:27:00 AM 45.4533 62.8042 128° Southeast  Level Estimated
Sat 09:28:00 AM 45.3642 62.9646 128° Southeast  Level Estimated
Sat 09:29:00 AM 45.2749 63.1245 128° Southeast  Level Estimated
Sat 09:30:00 AM 45.1854 63.2839 129° Southeast  Level Estimated
Sat 09:31:00 AM 45.0957 63.4427 129° Southeast  Level Estimated
Sat 09:32:00 AM 45.0058 63.6011 129° Southeast  Level Estimated
Sat 09:33:00 AM 44.9156 63.7590 129° Southeast  Level Estimated
Sat 09:34:00 AM 44.8252 63.9164 129° Southeast  Level Estimated
Sat 09:35:00 AM 44.7346 64.0732 129° Southeast  Level Estimated
Sat 09:36:00 AM 44.6438 64.2297 129° Southeast  Level Estimated
Sat 09:37:00 AM 44.5528 64.3856 129° Southeast  Level Estimated
Sat 09:38:00 AM 44.4615 64.5410 129° Southeast  Level Estimated
Sat 09:39:00 AM 44.3701 64.6959 130° Southeast  Level Estimated
Sat 09:40:00 AM 44.2784 64.8504 130° Southeast  Level Estimated
Sat 09:41:00 AM 44.1866 65.0043 130° Southeast  Level Estimated
Sat 09:42:00 AM 44.0945 65.1578 130° Southeast  Level Estimated
Sat 09:43:00 AM 44.0022 65.3108 130° Southeast  Level Estimated
Sat 09:44:00 AM 43.9098 65.4634 130° Southeast  Level Estimated
Sat 09:45:00 AM 43.8171 65.6154 130° Southeast  Level Estimated
Sat 09:46:00 AM 43.7242 65.7670 130° Southeast  Level Estimated
Sat 09:47:00 AM 43.6311 65.9182 130° Southeast  Level Estimated
Sat 09:48:00 AM 43.5378 66.0688 130° Southeast  Level Estimated
Sat 09:49:00 AM 43.4444 66.2190 131° Southeast  Level Estimated
Sat 09:50:00 AM 43.3507 66.3687 131° Southeast  Level Estimated
Sat 09:51:00 AM 43.2568 66.5180 131° Southeast  Level Estimated
Sat 09:52:00 AM 43.1628 66.6668 131° Southeast  Level Estimated
Sat 09:53:00 AM 43.0685 66.8151 131° Southeast  Level Estimated
Sat 09:54:00 AM 42.9741 66.9630 131° Southeast  Level Estimated
Sat 09:54:11 AM 41.5500 64.7300 131° Southeast 501 577 39,000  Level FlightAware
Sat 09:55:00 AM 42.8794 67.1104 131° Southeast  Level Estimated
Sat 09:55:12 AM 41.4390 64.7930 157° South 501 577 39,000  Level FlightAware
Sat 09:56:00 AM 41.3080 64.8590 159° South 493 567 39,000  Level FlightAware
Sat 09:56:37 AM 41.2420 64.8960 157° South 493 567 39,000  Level FlightAware
Sat 09:57:15 AM 41.1740 64.9340 157° South 493 567 39,000  Level FlightAware
Sat 09:58:03 AM 41.0880 64.9830 157° South 493 567 39,000  Level FlightAware
Sat 09:58:27 AM 41.0460 65.0070 157° South 493 567 39,000  Level FlightAware
Sat 09:59:08 AM 40.9070 65.0710 161° South 498 573 39,000  Level FlightAware
Sat 09:59:40 AM 40.8410 65.1060 158° South 500 575 39,000  Level FlightAware
Sat 10:00:36 AM 40.7180 65.1710 158° South 500 575 39,000  Level FlightAware
Sat 10:01:04 AM 40.6680 65.2000 156° South 500 575 39,000  Level FlightAware
Sat 10:01:49 AM 40.5640 65.2530 159° South 499 574 39,000  Level FlightAware
Sat 10:02:58 AM 40.4150 65.3300 159° South 499 574 39,000  Level FlightAware
Sat 10:03:52 AM 40.2990 65.3910 158° South 496 571 39,000  Level FlightAware
Sat 10:04:30 AM 40.2190 65.4320 159° South 500 575 39,000  Level FlightAware
Sat 10:05:10 AM 40.1330 65.4770 158° South 502 578 39,000  Level FlightAware
Sat 10:05:50 AM 40.0460 65.5210 159° South 500 575 39,000  Level FlightAware
Sat 10:06:33 AM 39.9540 65.5690 158° South 498 573 39,000  Level FlightAware
Sat 10:07:20 AM 39.8530 65.6200 159° South 499 574 39,000  Level FlightAware
Sat 10:08:20 AM 39.7230 65.6870 158° South 497 572 39,000  Level FlightAware
Sat 10:09:04 AM 39.6320 65.7330 159° South 499 574 39,000  Level FlightAware
Sat 10:09:42 AM 39.5480 65.7750 159° South 500 575 39,000  Level FlightAware
Sat 10:10:16 AM 39.4780 65.8110 158° South 498 573 39,000  Level FlightAware
Sat 10:10:43 AM 39.4160 65.8420 159° South 497 572 39,000  Level FlightAware
Sat 10:11:06 AM 39.3680 65.8660 159° South 496 571 39,000  Level FlightAware
Sat 10:11:50 AM 39.2730 65.9140 159° South 496 571 39,000  Level FlightAware
Sat 10:12:32 AM 39.1820 65.9590 159° South 496 571 39,000  Level FlightAware
Sat 10:13:12 AM 39.1070 65.9970 159° South 496 571 39,000  Level FlightAware
Sat 10:13:48 AM 39.0420 66.0310 158° South 496 571 39,000  Level FlightAware
Sat 10:14:36 AM 38.9550 66.0760 158° South 496 571 39,000  Level FlightAware
Sat 10:15:00 AM 38.9120 66.0990 157° South 496 571 39,000  Level FlightAware
Sat 10:15:49 AM 38.8230 66.1450 158° South 496 571 39,000  Level FlightAware
Sat 10:16:25 AM 38.7580 66.1790 158° South 496 571 39,000  Level FlightAware
Sat 10:17:11 AM 38.6750 66.2220 158° South 496 571 39,000  Level FlightAware
Sat 10:17:47 AM 38.6100 66.2550 158° South 496 571 39,000  Level FlightAware
Sat 10:18:35 AM 38.5230 66.3000 158° South 496 571 39,000  Level FlightAware
Sat 10:19:24 AM 38.4340 66.3460 158° South 496 571 39,000  Level FlightAware
Sat 10:20:00 AM 38.3690 66.3800 158° South 496 571 39,000  Level FlightAware
Sat 10:20:48 AM 38.2820 66.4240 158° South 496 571 39,000  Level FlightAware
Sat 10:21:24 AM 38.2170 66.4580 158° South 496 571 39,000  Level FlightAware
Sat 10:22:00 AM 38.1520 66.4910 158° South 496 571 39,000  Level FlightAware
Sat 10:22:36 AM 38.0870 66.5250 158° South 496 571 39,000  Level FlightAware
Sat 10:25:00 AM 37.8755 66.8701 128° Southeast  Level Estimated
Sat 10:26:00 AM 37.7871 67.0133 128° Southeast  Level Estimated
Sat 10:27:00 AM 37.6986 67.1562 128° Southeast  Level Estimated
Sat 10:28:00 AM 37.6098 67.2987 128° Southeast  Level Estimated
Sat 10:29:00 AM 37.5209 67.4409 128° Southeast  Level Estimated
Sat 10:30:00 AM 37.4318 67.5828 128° Southeast  Level Estimated
Sat 10:31:00 AM 37.3425 67.7243 128° Southeast  Level Estimated
Sat 10:32:00 AM 37.2531 67.8655 128° Southeast  Level Estimated
Sat 10:33:00 AM 37.1635 68.0063 129° Southeast  Level Estimated
Sat 10:34:00 AM 37.0738 68.1468 129° Southeast  Level Estimated
Sat 10:35:00 AM 36.9838 68.2870 129° Southeast  Level Estimated
Sat 10:36:00 AM 36.8937 68.4268 129° Southeast  Level Estimated
Sat 10:37:00 AM 36.8035 68.5663 129° Southeast  Level Estimated
Sat 10:38:00 AM 36.7131 68.7055 129° Southeast  Level Estimated
Sat 10:39:00 AM 36.6225 68.8444 129° Southeast  Level Estimated
Sat 10:40:00 AM 36.5317 68.9829 129° Southeast  Level Estimated
Sat 10:41:00 AM 36.4408 69.1211 129° Southeast  Level Estimated
Sat 10:42:00 AM 36.3498 69.2590 129° Southeast  Level Estimated
Sat 10:43:00 AM 36.2586 69.3966 129° Southeast  Level Estimated
Sat 10:44:00 AM 36.1672 69.5338 129° Southeast  Level Estimated
Sat 10:45:00 AM 36.0757 69.6707 130° Southeast  Level Estimated
Sat 10:46:00 AM 35.9840 69.8073 130° Southeast  Level Estimated
Sat 10:47:00 AM 35.8922 69.9436 130° Southeast  Level Estimated
Sat 10:48:00 AM 35.8002 70.0796 130° Southeast  Level Estimated
Sat 10:49:00 AM 35.7080 70.2152 130° Southeast  Level Estimated
Sat 10:50:00 AM 35.6157 70.3506 130° Southeast  Level Estimated
Sat 10:51:00 AM 35.5233 70.4856 130° Southeast  Level Estimated
Sat 10:52:00 AM 35.4307 70.6203 130° Southeast  Level Estimated
Sat 10:53:00 AM 35.3379 70.7547 130° Southeast  Level Estimated
Sat 10:54:00 AM 35.2450 70.8888 130° Southeast  Level Estimated
Sat 10:55:00 AM 35.1520 71.0226 130° Southeast  Level Estimated
Sat 10:56:00 AM 35.0588 71.1561 130° Southeast  Level Estimated
Sat 10:57:00 AM 34.9655 71.2893 131° Southeast  Level Estimated
Sat 10:57:40 AM 33.5880 69.7320 131° Southeast 517 595 39,000  Level FlightAware
Sat 10:58:24 AM 33.4950 69.7890 153° Southeast 522 601 39,000  Level FlightAware
Sat 10:58:44 AM 33.4550 69.8150 152° Southeast 521 600 39,000  Level FlightAware
Sat 11:00:12 AM 33.2650 69.9350 152° Southeast 523 602 39,000  Level FlightAware
Sat 11:00:59 AM 33.1810 69.9910 151° Southeast 523 602 39,000  Level FlightAware
Sat 11:01:36 AM 33.0850 70.0490 153° Southeast 526 605 39,000  Level FlightAware
Sat 11:02:18 AM 32.9980 70.1110 149° Southeast 530 610 39,000  Level FlightAware
Sat 11:02:48 AM 32.9350 70.1570 148° Southeast 529 609 39,000  Level FlightAware
Sat 11:03:23 AM 32.8630 70.2090 149° Southeast 524 603 39,000  Level FlightAware
Sat 11:04:05 AM 32.7740 70.2720 149° Southeast 522 601 39,000  Level FlightAware
Sat 11:04:41 AM 32.7030 70.3240 148° Southeast 519 597 39,000  Level FlightAware
Sat 11:05:19 AM 32.6220 70.3810 149° Southeast 517 595 39,000  Level FlightAware
Sat 11:05:58 AM 32.5410 70.4390 149° Southeast 518 596 39,000  Level FlightAware
Sat 11:06:38 AM 32.4600 70.4980 148° Southeast 518 596 39,000  Level FlightAware
Sat 11:07:12 AM 32.3900 70.5480 149° Southeast 519 597 39,000  Level FlightAware
Sat 11:08:06 AM 32.2780 70.6280 149° Southeast 520 598 39,000  Level FlightAware
Sat 11:08:42 AM 32.2120 70.6750 149° Southeast 519 597 39,000  Level FlightAware
Sat 11:09:16 AM 32.1350 70.7290 149° Southeast 520 598 39,000  Level FlightAware
Sat 11:10:06 AM 32.0320 70.8060 148° Southeast 526 605 39,000  Level FlightAware
Sat 11:10:48 AM 31.9540 70.8850 139° Southeast 530 610 39,000  Level FlightAware
Sat 11:11:06 AM 31.9230 70.9230 134° Southeast 530 610 39,000  Level FlightAware
Sat 11:12:09 AM 31.8350 71.0620 127° Southeast 534 615 39,000  Level FlightAware
Sat 11:12:54 AM 31.7790 71.1830 119° Southeast 532 612 39,000  Level FlightAware
Sat 11:13:26 AM 31.7410 71.2670 118° Southeast 533 613 39,000  Level FlightAware
Sat 11:14:09 AM 31.6960 71.3670 118° Southeast 534 615 39,000  Level FlightAware
Sat 11:14:51 AM 31.6430 71.4820 118° Southeast 535 616 39,000  Level FlightAware
Sat 11:15:30 AM 31.5980 71.5820 118° Southeast 534 615 39,000  Level FlightAware
Sat 11:16:49 AM 31.5060 71.7830 118° Southeast 531 611 39,000  Level FlightAware
Sat 11:17:25 AM 31.4640 71.8740 118° Southeast 533 613 39,000  Level FlightAware
Sat 11:18:11 AM 31.4120 71.9870 118° Southeast 532 612 39,000  Level FlightAware
Sat 11:18:47 AM 31.3690 72.0830 118° Southeast 534 615 39,000  Level FlightAware
Sat 11:19:27 AM 31.3330 72.1890 112° Southeast 533 613 39,000  Level FlightAware
Sat 11:19:59 AM 31.3130 72.2780 105° East 531 611 39,000  Level FlightAware
Sat 11:20:35 AM 31.2990 72.3800 99° East 531 611 39,000  Level FlightAware
Sat 11:21:18 AM 31.2960 72.5010 92° East 528 608 39,000  Level FlightAware
Sat 11:21:59 AM 31.3050 72.6180 85° East 523 602 39,000  Level FlightAware
Sat 11:22:30 AM 31.3150 72.7030 82° East 519 597 39,000  Level FlightAware
Sat 11:23:49 AM 31.3410 72.9240 82° East 516 594 39,000  Level FlightAware
Sat 11:24:19 AM 31.3500 73.0000 82° East 517 595 39,000  Level FlightAware
Sat 11:25:01 AM 31.3610 73.1220 84° East 520 598 39,000  Level FlightAware
Sat 11:25:57 AM 31.3740 73.2740 84° East 520 598 39,000  Level FlightAware
Sat 11:26:45 AM 31.3860 73.4130 84° East 521 600 39,000  Level FlightAware
Sat 11:27:19 AM 31.3940 73.5070 84° East 521 600 39,000  Level FlightAware
Sat 11:28:05 AM 31.4050 73.6360 84° East 521 600 39,000  Level FlightAware
Sat 11:28:45 AM 31.4150 73.7500 84° East 521 600 39,000  Level FlightAware
Sat 11:29:21 AM 31.4280 73.8500 81° East 522 601 39,000  Level FlightAware
Sat 11:30:01 AM 31.4360 73.9620 85° East 524 603 39,000  Level FlightAware
Sat 11:30:49 AM 31.4300 74.0980 93° East 525 604 39,000  Level FlightAware
Sat 11:31:54 AM 31.3980 74.2740 102° East 524 603 39,000  Level FlightAware
Sat 11:32:27 AM 31.3810 74.3690 102° East 525 604 39,000  Level FlightAware
Sat 11:33:13 AM 31.3580 74.4980 102° East 526 605 39,000  Level FlightAware
Sat 11:33:58 AM 31.3380 74.6090 102° East 525 604 39,000  Level FlightAware
Sat 11:34:34 AM 31.3230 74.6940 102° East 525 604 39,000  Level FlightAware
Sat 11:35:35 AM 31.2970 74.8380 102° East 525 604 39,000  Level FlightAware
Sat 11:36:11 AM 31.2810 74.9230 102° East 525 604 39,000  Level FlightAware
Sat 11:36:48 AM 31.2650 75.0100 102° East 525 604 39,000  Level FlightAware
Sat 11:37:24 AM 31.2500 75.0950 102° East 525 604 39,000  Level FlightAware
Sat 11:37:58 AM 31.2350 75.1760 102° East 525 604 39,000  Level FlightAware
Sat 11:38:32 AM 31.2210 75.2560 102° East 525 604 39,000  Level FlightAware
Sat 11:39:20 AM 31.2000 75.3690 102° East 525 604 39,000  Level FlightAware
Sat 11:39:56 AM 31.1850 75.4540 102° East 525 604 39,000  Level FlightAware
Sat 11:41:21 AM 31.1480 75.6550 102° East 525 604 39,000  Level FlightAware
Sat 11:41:57 AM 31.1330 75.7400 102° East 525 604 39,000  Level FlightAware
Sat 11:42:21 AM 31.1220 75.7970 103° East 525 604 39,000  Level FlightAware
Sat 11:43:22 AM 31.0960 75.9400 102° East 525 604 39,000  Level FlightAware
Sat 11:45:15 AM 30.8140 76.3820 127° Southeast 532 612 39,000  Level FlightAware
Sat 11:45:47 AM 30.7810 76.4790 112° Southeast 531 611 39,000  Level FlightAware
Sat 11:46:23 AM 30.7540 76.5610 111° Southeast 531 611 39,000  Level FlightAware
Sat 11:46:51 AM 30.7230 76.6460 113° Southeast 529 609 39,000  Level FlightAware
Sat 11:47:31 AM 30.6930 76.7360 111° Southeast 529 609 39,000  Level FlightAware
Sat 11:47:56 AM 30.6440 76.8300 121° Southeast 526 605 39,000  Level FlightAware
Sat 11:48:47 AM 30.5880 76.9340 122° Southeast 526 605 39,000  Level FlightAware
Sat 11:49:24 AM 30.5160 77.0280 132° Southeast 525 604 39,000  Level FlightAware
Sat 11:50:44 AM 30.3930 77.1750 134° Southeast 516 594 39,000  Level FlightAware
Sat 11:51:30 AM 30.2940 77.2550 145° Southeast 515 593 39,000  Level FlightAware
Sat 11:52:02 AM 30.2280 77.2960 152° Southeast 502 578 39,000  Level FlightAware
Sat 11:52:26 AM 30.1890 77.3190 153° Southeast 505 581 39,000  Level FlightAware
Sat 11:53:04 AM 30.1070 77.3700 152° Southeast 503 579 39,000  Level FlightAware
Sat 11:53:53 AM 29.9810 77.4500 151° Southeast 510 587 39,000  Level FlightAware
Sat 11:54:26 AM 29.9320 77.4910 144° Southeast 516 594 39,000  Level FlightAware
Sat 11:55:03 AM 29.8720 77.5460 142° Southeast 517 595 39,000  Level FlightAware
Sat 11:56:13 AM 29.7270 77.6760 142° Southeast 515 593 39,000  Level FlightAware
Sat 11:56:54 AM 29.6540 77.7410 142° Southeast 517 595 39,000  Level FlightAware
Sat 11:57:38 AM 29.5760 77.8100 142° Southeast 518 596 39,000  Level FlightAware
Sat 11:58:19 AM 29.4880 77.8880 142° Southeast 518 596 39,000  Level FlightAware
Sat 11:58:56 AM 29.4320 77.9380 142° Southeast 516 594 39,000  Level FlightAware
Sat 11:59:40 AM 29.3250 78.0330 142° Southeast 516 594 39,000  Level FlightAware
Sat 12:00:16 PM 29.2560 78.0930 143° Southeast 515 593 39,000  Level FlightAware
Sat 12:00:52 PM 29.1880 78.1530 142° Southeast 515 593 39,000 122 Level FlightAware
Sat 12:01:54 PM 29.0700 78.2570 142° Southeast 519 597 39,200  Climbing FlightAware
Sat 12:02:24 PM 29.0140 78.3050 143° Southeast 514 592 39,000 -154 Descending FlightAware
Sat 12:03:12 PM 28.9230 78.3850 142° Southeast 515 593 39,000  Level FlightAware
Sat 12:03:56 PM 28.8410 78.4570 142° Southeast 515 593 39,000  Level FlightAware
Sat 12:04:40 PM 28.7550 78.5320 143° Southeast 515 593 39,000  Level FlightAware
Sat 12:05:18 PM 28.6850 78.5930 143° Southeast 512 589 39,000 81 Level FlightAware
Sat 12:05:54 PM 28.6160 78.6520 143° Southeast 512 589 39,100 316 Climbing FlightAware
Sat 12:06:34 PM 28.5400 78.7180 143° Southeast 517 595 39,400 375 Climbing FlightAware
Sat 12:07:14 PM 28.4640 78.7860 142° Southeast 522 601 39,600 293 Climbing FlightAware
Sat 12:07:56 PM 28.3910 78.8660 136° Southeast 531 611 39,800 228 Climbing FlightAware
Sat 12:08:33 PM 28.3500 78.9140 134° Southeast 533 613 39,900 228 Climbing FlightAware
Sat 12:09:15 PM 28.2750 79.0010 134° Southeast 532 612 40,100 174 Climbing FlightAware
Sat 12:09:42 PM 28.2360 79.0470 134° Southeast 532 612 40,100  Level FlightAware
Sat 12:10:18 PM 28.1840 79.1090 134° Southeast 532 612 40,100  Level FlightAware
Sat 12:10:54 PM 28.1310 79.1700 135° Southeast 532 612 40,100  Level FlightAware
Sat 12:11:47 PM 28.0540 79.2610 134° Southeast 532 612 40,100  Level FlightAware
Sat 12:12:23 PM 28.0020 79.3220 134° Southeast 532 612 40,100  Level FlightAware
Sat 12:13:12 PM 27.9310 79.4050 134° Southeast 532 612 40,100  Level FlightAware
Sat 12:13:48 PM 27.8780 79.4670 134° Southeast 532 612 40,100  Level FlightAware
Sat 12:14:24 PM 27.8260 79.5280 134° Southeast 532 612 40,100  Level FlightAware
Sat 12:15:00 PM 27.7740 79.5890 134° Southeast 532 612 40,100  Level FlightAware
Sat 12:15:24 PM 27.7390 79.6300 134° Southeast 532 612 40,100  Level FlightAware
Sat 12:16:10 PM 27.6720 79.7080 134° Southeast 532 612 40,100  Level FlightAware
Sat 12:16:46 PM 27.6200 79.7690 134° Southeast 532 612 40,100  Level FlightAware
Sat 12:17:23 PM 27.5660 79.8320 134° Southeast 532 612 40,100  Level FlightAware
Sat 12:18:00 PM 27.5120 79.8950 134° Southeast 532 612 40,100  Level FlightAware
Sat 12:18:25 PM 27.4760 79.9370 134° Southeast 532 612 40,100  Level FlightAware
Sat 12:18:37 PM 27.4580 79.9580 134° Southeast 532 612 40,100 Level FlightAware
Sat 12:21:00 PM 27.2179 80.2324 134° Southeast  Level Estimated
Sat 12:22:00 PM 27.1170 80.3472 135° Southeast  Level Estimated
Sat 12:23:00 PM 27.0161 80.4618 135° Southeast  Level Estimated
Sat 12:24:00 PM 26.9150 80.5762 135° Southeast  Level Estimated
Sat 12:25:00 PM 26.8138 80.6904 135° Southeast  Level Estimated
Sat 12:26:00 PM 26.7125 80.8043 135° Southeast  Level Estimated
Sat 12:27:00 PM 26.6112 80.9181 135° Southeast  Level Estimated
Sat 12:28:00 PM 26.5098 81.0317 135° Southeast  Level Estimated
Sat 12:29:00 PM 26.4082 81.1451 135° Southeast  Level Estimated
Sat 12:30:00 PM 26.3066 81.2582 135° Southeast  Level Estimated
Sat 12:31:00 PM 26.2049 81.3712 135° Southeast  Level Estimated
Sat 12:32:00 PM 26.1031 81.4840 135° Southeast  Level Estimated
Sat 12:33:00 PM 26.0012 81.5965 135° Southeast  Level Estimated
Sat 12:34:00 PM 25.8992 81.7089 135° Southeast  Level Estimated
Sat 12:35:00 PM 25.7972 81.8211 135° Southeast  Level Estimated
Sat 12:36:00 PM 25.6950 81.9331 135° Southeast  Level Estimated
Sat 12:37:00 PM 25.5928 82.0449 135° Southeast  Level Estimated
Sat 12:38:00 PM 25.4905 82.1565 135° Southeast  Level Estimated
Sat 12:39:00 PM 25.3881 82.2679 135° Southeast  Level Estimated
Sat 12:40:00 PM 25.2856 82.3792 136° Southeast  Level Estimated
Sat 12:41:00 PM 25.1830 82.4902 136° Southeast  Level Estimated
Sat 12:42:00 PM 25.0804 82.6011 136° Southeast  Level Estimated
Sat 12:43:00 PM 24.9777 82.7117 136° Southeast  Level Estimated
Sat 12:44:00 PM 24.8748 82.8222 136° Southeast  Level Estimated
Sat 12:45:00 PM 24.7720 82.9325 136° Southeast  Level Estimated
Sat 12:46:00 PM 24.6690 83.0426 136° Southeast  Level Estimated
Sat 12:47:00 PM 24.5659 83.1526 136° Southeast  Level Estimated
Sat 12:48:00 PM 24.4628 83.2623 136° Southeast  Level Estimated
Sat 12:49:00 PM 24.3596 83.3719 136° Southeast  Level Estimated
Sat 12:50:00 PM 24.2563 83.4813 136° Southeast  Level Estimated
Sat 12:51:00 PM 24.1529 83.5905 136° Southeast  Level Estimated
Sat 12:52:00 PM 24.0495 83.6996 136° Southeast  Level Estimated
Sat 12:53:00 PM 23.9460 83.8085 136° Southeast  Level Estimated
Sat 12:54:00 PM 23.8424 83.9172 136° Southeast  Level Estimated
Sat 12:55:00 PM 23.7387 84.0257 136° Southeast  Level Estimated
Sat 12:56:00 PM 23.6349 84.1340 136° Southeast  Level Estimated
Sat 12:57:00 PM 23.5311 84.2422 136° Southeast  Level Estimated
Sat 12:58:00 PM 23.4272 84.3502 136° Southeast  Level Estimated
Sat 12:59:00 PM 23.3232 84.4581 136° Southeast  Level Estimated
Sat 01:00:00 PM 23.2192 84.5657 136° Southeast  Level Estimated
Sat 01:01:00 PM 23.1150 84.6732 136° Southeast  Level Estimated
Sat 01:02:00 PM 23.0109 84.7806 137° Southeast  Level Estimated
Sat 01:03:00 PM 22.9066 84.8877 137° Southeast  Level Estimated
Sat 01:04:00 PM 22.8022 84.9947 137° Southeast  Level Estimated
Sat 01:05:00 PM 22.6978 85.1016 137° Southeast  Level Estimated
Sat 01:06:00 PM 22.5933 85.2083 137° Southeast  Level Estimated
Sat 01:07:00 PM 22.4888 85.3148 137° Southeast  Level Estimated
Sat 01:08:00 PM 22.3842 85.4211 137° Southeast  Level Estimated
Sat 01:09:00 PM 22.2795 85.5273 137° Southeast  Level Estimated
Sat 01:10:00 PM 22.1747 85.6333 137° Southeast  Level Estimated
Sat 01:11:00 PM 22.0699 85.7392 137° Southeast  Level Estimated
Sat 01:12:00 PM 21.9650 85.8449 137° Southeast  Level Estimated
Sat 01:13:00 PM 21.8600 85.9505 137° Southeast  Level Estimated
Sat 01:14:00 PM 21.7550 86.0559 137° Southeast  Level Estimated
Sat 01:15:00 PM 21.6499 86.1612 137° Southeast  Level Estimated
Sat 01:16:00 PM 21.5447 86.2663 137° Southeast  Level Estimated
Sat 01:17:00 PM 21.4395 86.3712 137° Southeast  Level Estimated
Sat 01:18:00 PM 21.3342 86.4760 137° Southeast  Level Estimated
Sat 01:19:00 PM 21.2288 86.5807 137° Southeast  Level Estimated
Sat 01:20:00 PM 21.1234 86.6852 137° Southeast  Level Estimated
Sat 01:21:00 PM 21.0179 86.7895 137° Southeast  Level Estimated
Sat 01:22:00 PM 20.9124 86.8937 137° Southeast  Level Estimated
Sat 01:23:00 PM 20.8067 86.9978 137° Southeast  Level Estimated
Sat 01:24:00 PM 20.7011 87.1017 137° Southeast  Level Estimated
Sat 01:25:00 PM 20.5953 87.2055 137° Southeast  Level Estimated
Sat 01:26:00 PM 20.4895 87.3091 137° Southeast  Level Estimated
Sat 01:27:00 PM 20.3837 87.4126 137° Southeast  Level Estimated
Sat 01:28:00 PM 20.2777 87.5159 138° Southeast  Level Estimated
Sat 01:29:00 PM 20.1717 87.6191 138° Southeast  Level Estimated
Sat 01:30:00 PM 20.0657 87.7222 138° Southeast  Level Estimated
Sat 01:31:00 PM 19.9596 87.8251 138° Southeast  Level Estimated
Sat 01:32:00 PM 19.8534 87.9279 138° Southeast  Level Estimated
Sat 01:33:00 PM 19.7472 88.0305 138° Southeast  Level Estimated
Sat 01:34:00 PM 19.6409 88.1330 138° Southeast  Level Estimated
Sat 01:35:00 PM 19.5346 88.2354 138° Southeast  Level Estimated
Sat 01:36:00 PM 19.4282 88.3376 138° Southeast  Level Estimated
Sat 01:37:00 PM 19.3217 88.4397 138° Southeast  Level Estimated
Sat 01:38:00 PM 19.2152 88.5417 138° Southeast  Level Estimated
Sat 01:39:00 PM 19.1086 88.6435 138° Southeast  Level Estimated
Sat 01:40:00 PM 19.0020 88.7452 138° Southeast  Level Estimated
Sat 01:41:00 PM 18.8953 88.8468 138° Southeast  Level Estimated
Sat 01:42:00 PM 18.7886 88.9482 138° Southeast  Level Estimated
Sat 01:43:00 PM 18.6818 89.0495 138° Southeast  Level Estimated
Sat 01:44:00 PM 18.5750 89.1507 138° Southeast  Level Estimated
Sat 01:45:00 PM 18.4681 89.2518 138° Southeast  Level Estimated
Sat 01:46:00 PM 18.3611 89.3527 138° Southeast  Level Estimated
Sat 01:47:00 PM 18.2541 89.4535 138° Southeast  Level Estimated
Sat 01:48:00 PM 18.1471 89.5542 138° Southeast  Level Estimated
Sat 01:49:00 PM 18.0400 89.6547 138° Southeast  Level Estimated
Sat 01:50:00 PM 17.9328 89.7552 138° Southeast  Level Estimated
Sat 01:51:00 PM 17.8256 89.8555 138° Southeast  Level Estimated
Sat 01:52:00 PM 17.7183 89.9557 138° Southeast  Level Estimated
Sat 01:53:00 PM 17.6110 90.0558 138° Southeast  Level Estimated
Sat 01:54:00 PM 17.5037 90.1557 138° Southeast  Level Estimated
Sat 01:55:00 PM 17.3962 90.2556 138° Southeast  Level Estimated
Sat 01:56:00 PM 17.2888 90.3553 138° Southeast  Level Estimated
Sat 01:57:00 PM 17.1813 90.4549 138° Southeast  Level Estimated
Sat 01:58:00 PM 17.0737 90.5544 139° Southeast  Level Estimated
Sat 01:59:00 PM 16.9661 90.6538 139° Southeast  Level Estimated
Sat 02:00:00 PM 16.8584 90.7531 139° Southeast  Level Estimated
Sat 02:01:00 PM 16.7507 90.8522 139° Southeast  Level Estimated
Sat 02:02:00 PM 16.6430 90.9512 139° Southeast  Level Estimated
Sat 02:03:00 PM 16.5352 91.0502 139° Southeast  Level Estimated
Sat 02:04:00 PM 16.4273 91.1490 139° Southeast  Level Estimated
Sat 02:05:00 PM 16.3195 91.2477 139° Southeast  Level Estimated
Sat 02:06:00 PM 16.2115 91.3463 139° Southeast  Level Estimated
Sat 02:07:00 PM 16.1035 91.4448 139° Southeast  Level Estimated
Sat 02:08:00 PM 15.9955 91.5432 139° Southeast  Level Estimated
Sat 02:09:00 PM 15.8874 91.6414 139° Southeast  Level Estimated
Sat 02:10:00 PM 15.7793 91.7396 139° Southeast  Level Estimated
Sat 02:11:00 PM 15.6712 91.8377 139° Southeast  Level Estimated
Sat 02:12:00 PM 15.5629 91.9357 139° Southeast  Level Estimated
Sat 02:13:00 PM 15.4547 92.0335 139° Southeast  Level Estimated
Sat 02:14:00 PM 15.3464 92.1313 139° Southeast  Level Estimated
Sat 02:15:00 PM 15.2381 92.2289 139° Southeast  Level Estimated
Sat 02:16:00 PM 15.1297 92.3265 139° Southeast  Level Estimated
Sat 02:17:00 PM 15.0213 92.4239 139° Southeast  Level Estimated
Sat 02:18:00 PM 14.9128 92.5213 139° Southeast  Level Estimated
Sat 02:19:00 PM 14.8043 92.6185 139° Southeast  Level Estimated
Sat 02:20:00 PM 14.6958 92.7157 139° Southeast  Level Estimated
Sat 02:21:00 PM 14.5872 92.8128 139° Southeast  Level Estimated
Sat 02:22:00 PM 14.4786 92.9097 139° Southeast  Level Estimated
Sat 02:23:00 PM 14.3699 93.0066 139° Southeast  Level Estimated
Sat 02:24:00 PM 14.2612 93.1034 139° Southeast  Level Estimated
Sat 02:25:00 PM 14.1525 93.2001 139° Southeast  Level Estimated
Sat 02:26:00 PM 14.0437 93.2967 139° Southeast  Level Estimated
Sat 02:27:00 PM 13.9349 93.3932 139° Southeast  Level Estimated
Sat 02:28:00 PM 13.8260 93.4896 139° Southeast  Level Estimated
Sat 02:29:00 PM 13.7171 93.5859 139° Southeast  Level Estimated
Sat 02:30:00 PM 13.6082 93.6821 139° Southeast  Level Estimated
Sat 02:31:00 PM 13.4992 93.7783 139° Southeast  Level Estimated
Sat 02:32:00 PM 13.3902 93.8743 139° Southeast  Level Estimated
Sat 02:33:00 PM 13.2812 93.9703 139° Southeast  Level Estimated
Sat 02:34:00 PM 13.1721 94.0662 139° Southeast  Level Estimated
Sat 02:35:00 PM 13.0630 94.1620 139° Southeast  Level Estimated
Sat 02:36:00 PM 12.9538 94.2577 139° Southeast  Level Estimated
Sat 02:37:00 PM 12.8447 94.3533 140° Southeast  Level Estimated
Sat 02:38:00 PM 12.7354 94.4488 140° Southeast  Level Estimated
Sat 02:39:00 PM 12.6262 94.5443 140° Southeast  Level Estimated
Sat 02:40:00 PM 12.5169 94.6397 140° Southeast  Level Estimated
Sat 02:41:00 PM 12.4076 94.7350 140° Southeast  Level Estimated
Sat 02:42:00 PM 12.2982 94.8302 140° Southeast  Level Estimated
Sat 02:43:00 PM 12.1889 94.9253 140° Southeast  Level Estimated
Sat 02:44:00 PM 12.0794 95.0204 140° Southeast  Level Estimated
Sat 02:45:00 PM 11.9700 95.1154 140° Southeast  Level Estimated
Sat 02:46:00 PM 11.8605 95.2103 140° Southeast  Level Estimated
Sat 02:47:00 PM 11.7510 95.3051 140° Southeast  Level Estimated
Sat 02:48:00 PM 11.6414 95.3999 140° Southeast  Level Estimated
Sat 02:49:00 PM 11.5319 95.4946 140° Southeast  Level Estimated
Sat 02:50:00 PM 11.4223 95.5892 140° Southeast  Level Estimated
Sat 02:51:00 PM 11.3126 95.6837 140° Southeast  Level Estimated
Sat 02:52:00 PM 11.2029 95.7782 140° Southeast  Level Estimated
Sat 02:53:00 PM 11.0933 95.8726 140° Southeast  Level Estimated
Sat 02:54:00 PM 10.9835 95.9669 140° Southeast  Level Estimated
Sat 02:55:00 PM 10.8738 96.0611 140° Southeast  Level Estimated
Sat 02:56:00 PM 10.7640 96.1553 140° Southeast  Level Estimated
Sat 02:57:00 PM 10.6542 96.2494 140° Southeast  Level Estimated
Sat 02:58:00 PM 10.5443 96.3435 140° Southeast  Level Estimated
Sat 02:59:00 PM 10.4345 96.4374 140° Southeast  Level Estimated
Sat 03:00:00 PM 10.3246 96.5313 140° Southeast  Level Estimated
Sat 03:01:00 PM 10.2147 96.6252 140° Southeast  Level Estimated
Sat 03:02:00 PM 10.1047 96.7190 140° Southeast  Level Estimated
Sat 03:03:00 PM 9.9948 96.8127 140° Southeast  Level Estimated
Sat 03:04:00 PM 9.8848 96.9063 140° Southeast  Level Estimated
Sat 03:05:00 PM 9.7747 96.9999 140° Southeast  Level Estimated
Sat 03:05:27 PM 11.3990 96.6480 140° Southeast 452 520 41,000  Level FlightAware
Sat 03:06:00 PM 9.6647 97.0935 140° Southeast  Level Estimated
Sat 03:06:09 PM 11.3210 96.6880 153° Southeast 454 522 41,000  Level FlightAware
Sat 03:06:36 PM 11.2780 96.7100 153° Southeast 454 522 41,000  Level FlightAware
Sat 03:07:13 PM 11.2190 96.7410 153° Southeast 454 522 41,000  Level FlightAware
Sat 03:08:27 PM 11.0600 96.8200 154° Southeast 456 525 41,000  Level FlightAware
Sat 03:08:55 PM 11.0090 96.8460 153° Southeast 458 527 41,000  Level FlightAware
Sat 03:09:51 PM 10.9000 96.9010 154° Southeast 461 531 41,000  Level FlightAware
Sat 03:10:43 PM 10.8000 96.9520 153° Southeast 462 532 41,000  Level FlightAware
Sat 03:11:39 PM 10.6930 97.0060 154° Southeast 462 532 41,000  Level FlightAware
Sat 03:12:41 PM 10.5770 97.0640 154° Southeast 465 535 41,000  Level FlightAware
Sat 03:13:13 PM 10.5110 97.0970 154° Southeast 465 535 41,000  Level FlightAware
Sat 03:14:10 PM 10.4050 97.1510 153° Southeast 465 535 41,000  Level FlightAware
Sat 03:14:41 PM 10.3420 97.1830 153° Southeast 469 540 41,000  Level FlightAware
Sat 03:15:10 PM 10.2860 97.2110 154° Southeast 467 537 41,000  Level FlightAware
Sat 03:16:08 PM 10.1740 97.2670 154° Southeast 462 532 41,000  Level FlightAware
Sat 03:16:46 PM 10.0990 97.3050 153° Southeast 465 535 41,000  Level FlightAware
Sat 03:17:22 PM 10.0300 97.3400 153° Southeast 468 539 41,000  Level FlightAware
Sat 03:18:22 PM 9.9150 97.3980 154° Southeast 467 537 41,000  Level FlightAware
Sat 03:19:11 PM 9.8220 97.4450 154° Southeast 466 536 41,000  Level FlightAware
Sat 03:20:18 PM 9.6900 97.5120 153° Southeast 467 537 41,000  Level FlightAware
Sat 03:20:46 PM 9.6330 97.5410 153° Southeast 466 536 41,000  Level FlightAware
Sat 03:22:00 PM 9.4920 97.6130 153° Southeast 465 535 41,000  Level FlightAware
Sat 03:22:32 PM 9.4300 97.6440 154° Southeast 464 534 41,000  Level FlightAware
Sat 03:23:28 PM 9.3210 97.6990 154° Southeast 466 536 41,000  Level FlightAware
Sat 03:24:04 PM 9.2510 97.7350 153° Southeast 467 537 41,000  Level FlightAware
Sat 03:24:34 PM 9.1930 97.7640 154° Southeast 468 539 41,000  Level FlightAware
Sat 03:25:36 PM 9.0740 97.8240 154° Southeast 465 535 41,000  Level FlightAware
Sat 03:26:28 PM 8.9740 97.8740 154° Southeast 462 532 41,000  Level FlightAware
Sat 03:27:32 PM 8.8500 97.9370 153° Southeast 465 535 41,000  Level FlightAware
Sat 03:28:04 PM 8.7880 97.9680 154° Southeast 467 537 41,000  Level FlightAware
Sat 03:29:00 PM 8.6800 98.0220 154° Southeast 465 535 41,000  Level FlightAware
Sat 03:29:44 PM 8.5960 98.0650 153° Southeast 459 528 41,000  Level FlightAware
Sat 03:30:13 PM 8.5450 98.0900 154° Southeast 459 528 41,000  Level FlightAware
Sat 03:31:13 PM 8.4320 98.1470 153° Southeast 456 525 41,000  Level FlightAware
Sat 03:32:02 PM 8.3330 98.1970 153° Southeast 454 522 41,000  Level FlightAware
Sat 03:32:36 PM 8.2700 98.2290 153° Southeast 453 521 41,000  Level FlightAware
Sat 03:33:20 PM 8.1880 98.2700 154° Southeast 455 524 41,000  Level FlightAware
Sat 03:33:56 PM 8.1200 98.3070 152° Southeast 455 524 41,000  Level FlightAware
Sat 03:34:50 PM 8.0320 98.3750 143° Southeast 456 525 41,000  Level FlightAware
Sat 03:35:22 PM 7.9780 98.4190 141° Southeast 458 527 41,000  Level FlightAware
Sat 03:35:56 PM 7.9230 98.4650 140° Southeast 458 527 41,000  Level FlightAware
Sat 03:36:28 PM 7.8680 98.5100 141° Southeast 454 522 41,000  Level FlightAware
Sat 03:36:58 PM 7.8200 98.5500 140° Southeast 454 522 41,000  Level FlightAware
Sat 03:37:26 PM 7.7760 98.5860 141° Southeast 455 524 41,000  Level FlightAware
Sat 03:38:02 PM 7.7160 98.6350 141° Southeast 457 526 41,000  Level FlightAware
Sat 03:38:38 PM 7.6580 98.6830 141° Southeast 457 526 41,000  Level FlightAware
Sat 03:39:18 PM 7.5900 98.7380 141° Southeast 455 524 41,000  Level FlightAware
Sat 03:39:54 PM 7.5320 98.7860 141° Southeast 454 522 41,000  Level FlightAware
Sat 03:40:32 PM 7.4700 98.8370 141° Southeast 456 525 41,000  Level FlightAware
Sat 03:41:04 PM 7.4170 98.8800 141° Southeast 457 526 41,000  Level FlightAware
Sat 03:42:11 PM 7.3060 98.9710 141° Southeast 459 528 41,000  Level FlightAware
Sat 03:42:47 PM 7.2480 99.0190 141° Southeast 456 525 41,000  Level FlightAware
Sat 03:43:23 PM 7.1900 99.0670 141° Southeast 452 520 41,000  Level FlightAware
Sat 03:44:24 PM 7.0910 99.1470 141° Southeast 451 519 41,000  Level FlightAware
Sat 03:44:52 PM 7.0450 99.1850 141° Southeast 454 522 41,000  Level FlightAware
Sat 03:45:44 PM 6.9600 99.2540 141° Southeast 455 524 41,000  Level FlightAware
Sat 03:46:41 PM 6.8680 99.3300 141° Southeast 453 521 41,000  Level FlightAware
Sat 03:47:36 PM 6.7780 99.4030 141° Southeast 453 521 41,000  Level FlightAware
Sat 03:48:36 PM 6.6810 99.4830 141° Southeast 454 522 41,000  Level FlightAware
Sat 03:49:06 PM 6.6310 99.5240 141° Southeast 452 520 41,000  Level FlightAware
Sat 03:49:41 PM 6.5740 99.5700 141° Southeast 450 518 41,000  Level FlightAware
Sat 03:50:16 PM 6.5210 99.6130 141° Southeast 452 520 41,000  Level FlightAware
Sat 03:50:46 PM 6.4690 99.6560 141° Southeast 452 520 41,000  Level FlightAware
Sat 03:51:36 PM 6.3890 99.7200 142° Southeast 453 521 41,000  Level FlightAware
Sat 03:52:31 PM 6.3000 99.7910 142° Southeast 455 524 41,000  Level FlightAware
Sat 03:53:01 PM 6.2450 99.8310 144° Southeast 456 525 41,000  Level FlightAware
Sat 03:53:56 PM 6.1530 99.9010 143° Southeast 456 525 41,000  Level FlightAware
Sat 03:54:26 PM 6.1000 99.9410 143° Southeast 459 528 41,000  Level FlightAware
Sat 03:55:01 PM 6.0420 99.9850 143° Southeast 459 528 41,000  Level FlightAware
Sat 03:55:56 PM 5.9480 100.0560 143° Southeast 461 531 41,000  Level FlightAware
Sat 03:57:11 PM 5.8220 100.1540 142° Southeast 459 528 41,000  Level FlightAware
Sat 03:57:56 PM 5.7440 100.2130 143° Southeast 462 532 41,000  Level FlightAware
Sat 03:58:31 PM 5.6850 100.2570 143° Southeast 461 531 41,000  Level FlightAware
Sat 03:58:56 PM 5.6420 100.2900 143° Southeast 460 529 41,000  Level FlightAware
Sat 03:59:41 PM 5.5650 100.3480 143° Southeast 459 528 41,000  Level FlightAware
Sat 04:00:11 PM 5.5180 100.3830 143° Southeast 458 527 41,000  Level FlightAware
Sat 04:00:46 PM 5.4560 100.4300 143° Southeast 459 528 41,000  Level FlightAware
Sat 04:01:16 PM 5.4030 100.4690 144° Southeast 461 531 41,000  Level FlightAware
Sat 04:01:56 PM 5.3360 100.5200 143° Southeast 463 533 41,000  Level FlightAware
Sat 04:02:36 PM 5.2700 100.5700 143° Southeast 460 529 41,000  Level FlightAware
Sat 04:03:06 PM 5.2200 100.6080 143° Southeast 459 528 41,000  Level FlightAware
Sat 04:03:36 PM 5.1650 100.6490 143° Southeast 461 531 41,000  Level FlightAware
Sat 04:04:16 PM 5.0970 100.7010 143° Southeast 462 532 41,000  Level FlightAware
Sat 04:05:21 PM 4.9860 100.7840 143° Southeast 464 534 41,000  Level FlightAware
Sat 04:05:46 PM 4.9430 100.8160 143° Southeast 462 532 41,000  Level FlightAware
Sat 04:06:27 PM 4.8730 100.8690 143° Southeast 460 529 41,000  Level FlightAware
Sat 04:07:11 PM 4.7960 100.9260 144° Southeast 462 532 41,000  Level FlightAware
Sat 04:07:51 PM 4.7270 100.9780 143° Southeast 464 534 41,000  Level FlightAware
Sat 04:08:31 PM 4.6590 101.0290 143° Southeast 465 535 41,000  Level FlightAware
Sat 04:09:01 PM 4.6060 101.0650 146° Southeast 463 533 41,000  Level FlightAware
Sat 04:09:41 PM 4.5300 101.1020 154° Southeast 458 527 41,000  Level FlightAware
Sat 04:10:36 PM 4.4170 101.1390 162° South 459 528 41,000  Level FlightAware
Sat 04:11:01 PM 4.3670 101.1540 163° South 461 531 41,000  Level FlightAware
Sat 04:12:11 PM 4.2230 101.1960 164° South 460 529 41,000  Level FlightAware
Sat 04:12:46 PM 4.1500 101.2170 164° South 459 528 41,000  Level FlightAware
Sat 04:13:46 PM 4.0280 101.2520 164° South 461 531 41,000  Level FlightAware
Sat 04:14:36 PM 3.9280 101.2830 163° South 460 529 41,000  Level FlightAware
Sat 04:15:06 PM 3.8750 101.3110 152° Southeast 461 531 41,000  Level FlightAware
Sat 04:15:35 PM 3.8170 101.3480 148° Southeast 464 534 41,000  Level FlightAware
Sat 04:16:13 PM 3.7470 101.3900 149° Southeast 463 533 41,000  Level FlightAware
Sat 04:17:08 PM 3.6430 101.4510 150° Southeast 462 532 41,000  Level FlightAware
Sat 04:17:57 PM 3.5570 101.5020 149° Southeast 463 533 41,000  Level FlightAware
Sat 04:18:29 PM 3.5100 101.5300 149° Southeast 465 535 41,000  Level FlightAware
Sat 04:19:05 PM 3.4240 101.5810 149° Southeast 460 529 41,000  Level FlightAware
Sat 04:19:45 PM 3.3505 101.6245 149° Southeast 460 529 41,000  Level FlightAware
Sat 04:20:22 PM 3.2816 101.6653 149° Southeast 459 528 41,000  Level FlightAware
Sat 04:20:57 PM 3.2176 101.7032 149° Southeast 458 527 41,000  Level FlightAware
Sat 04:21:40 PM 3.1570 101.7390 149° Southeast 459 528 41,000  Level FlightAware
Sat 04:22:45 PM 3.0400 101.8080 150° Southeast 464 534 41,000  Level FlightAware
Sat 04:23:17 PM 2.9700 101.8500 149° Southeast 463 533 41,000  Level FlightAware
Sat 04:23:42 PM 2.9360 101.8700 150° Southeast 464 534 41,000  Level FlightAware
Sat 04:24:20 PM 2.8620 101.9140 149° Southeast 466 536 41,000  Level FlightAware
Sat 04:24:53 PM 2.8020 101.9490 150° Southeast 466 536 41,000  Level FlightAware
Sat 04:25:29 PM 2.7270 101.9940 149° Southeast 464 534 41,000  Level FlightAware
Sat 04:26:14 PM 2.6380 102.0470 149° Southeast 466 536 41,000  Level FlightAware
Sat 04:26:39 PM 2.5960 102.0710 150° Southeast 465 535 41,000  Level FlightAware
Sat 04:27:18 PM 2.5210 102.1160 149° Southeast 461 531 41,000  Level FlightAware
Sat 04:28:19 PM 2.4880 102.1360 149° Southeast 461 531 41,000 -558 Level FlightAware
Sat 04:29:27 PM 2.2800 102.2580 150° Southeast 463 533 39,800  Descending FlightAware
Sat 04:29:50 PM 2.3690 102.2060 330° Northwest 465 535 41,000 -1,514 Climbing FlightAware
Sat 04:31:14 PM 2.1110 102.3590 149° Southeast 464 534 37,100 -2,893 Descending FlightAware
Sat 04:31:42 PM 2.1310 102.3500 336° Northwest 461 531 35,600 -1,731 Descending FlightAware
Sat 04:32:06 PM 2.0950 102.3740 146° Southeast 461 531 35,600  Level FlightAware
Sat 04:32:55 PM 2.0220 102.4240 146° Southeast 461 531 35,600 -2,177 Level FlightAware
Sat 04:34:10 PM 1.8940 102.5980 126° Southeast 436 502 31,100 -3,339 Descending FlightAware
Sat 04:34:50 PM 1.8470 102.6850 118° Southeast 437 503 29,200 -2,550 Descending FlightAware
Sat 04:35:30 PM 1.8020 102.7700 118° Southeast 431 496 27,700 -1,980 Descending FlightAware
Sat 04:36:30 PM 1.7450 102.8760 118° Southeast 420 483 25,900 -1,800 Descending FlightAware
Sat 04:36:40 PM 1.7370 102.8910 118° Southeast 417 480 25,600 -1,650 Descending FlightAware
Sat 04:37:10 PM 1.7120 102.9370 119° Southeast 412 474 24,800 -1,979 Descending FlightAware
Sat 04:38:17 PM 1.6320 103.0810 119° Southeast 389 448 22,400 -1,660 Descending FlightAware
Sat 04:38:44 PM 1.6030 103.1160 130° Southeast 368 423 22,200 -1,161 Descending FlightAware
Sat 04:39:50 PM 1.5180 103.1840 141° Southeast 353 406 20,600 -1,456 Descending FlightAware
Sat 04:40:27 PM 1.4670 103.2170 147° Southeast 346 398 19,700 -1,938 Descending FlightAware
Sat 04:41:26 PM 1.4000 103.2770 138° Southeast 351 404 17,500 -2,329 Descending FlightAware
Sat 04:41:52 PM 1.3750 103.3120 126° Southeast 362 417 16,400 -2,267 Descending FlightAware
Sat 04:42:56 PM 1.3090 103.4030 126° Southeast 364 419 14,100 -2,032 Descending FlightAware
Sat 04:43:56 PM 1.2520 103.4830 125° Southeast 354 407 12,200 -1,691 Descending FlightAware
Sat 04:44:46 PM 1.2100 103.5400 126° Southeast 346 398 11,000 -847 Descending FlightAware
Sat 04:45:21 PM 1.1820 103.5790 126° Southeast 346 398 11,000 -1,595 Level FlightAware
Sat 04:46:05 PM 1.1620 103.6570 104° East 345 397 8,900 -3,568 Descending FlightAware
Sat 04:46:35 PM 1.1680 103.7100 84° East 328 377 6,600 -3,000 Descending FlightAware
Sat 04:47:11 PM 1.1600 103.7610 99° East 283 326 5,600 -2,000 Descending FlightAware
Sat 04:47:41 PM 1.1540 103.7980 99° East 270 311 4,400 -2,000 Descending FlightAware
Sat 04:48:17 PM 1.1470 103.8440 99° East 268 308 3,400 -1,571 Descending FlightAware
Sat 04:48:23 PM 1.1470 103.8510 90° East 265 305 3,300 -375 Descending FlightAware
Sat 04:49:05 PM 1.1660 103.8900 64° Northeast 230 265 3,100 -411 Descending FlightAware
Sat 04:49:36 PM 1.1900 103.9100 40° Northeast 207 238 2,800 -436 Descending FlightAware
Sat 04:50:00 PM 1.2100 103.9190 24° Northeast 192 221 2,700 -490 Descending FlightAware
Sat 04:50:25 PM 1.2300 103.9270 22° Northeast 175 201 2,400 -625 Descending FlightAware
Sat 04:50:48 PM 1.2460 103.9340 24° Northeast 168 193 2,200 -706 Descending FlightAware
Sat 04:51:16 PM 1.2670 103.9430 23° Northeast 166 191 1,800 -844 Descending FlightAware
Sat 04:51:52 PM 1.2920 103.9530 22° Northeast 144 166 1,300 -701 Descending FlightAware
Sat 04:52:33 PM 1.3160 103.9640 25° Northeast 133 153 900 -700 Descending FlightAware
Sat 04:52:52 PM 1.3270 103.9680 20° North 132 152 600 -692 Descending FlightAware
Sat 04:53:25 PM 1.3460 103.9760 23° Northeast 136 157 300 -400 Descending FlightAware
Sat 04:53:52 PM 1.3590 103.9820 25° Northeast 136 157 200 -222 Descending FlightAware
Sat 04:53:55 PM 1.3610 103.9830 27° Northeast 100 115 -4,000 Descending FlightAware
Sat 04:54:20 PM 1.3700 103.9860 18° North 100 115  Level FlightAware

Login

Don't have an account? Register now (free) for customized features, flight alerts, and more!